<?xml version="1.0" encoding="UTF-8" standalone="no" ?>
<gpx xmlns="http://www.topografix.com/GPX/1/1" xmlns:xsi="http://www.w3.org/2001/XMLSchema-instance" xsi:schemaLocation="http://www.topografix.com/GPX/1/1 http://www.topografix.com/GPX/1/1/gpx.xsd" version="1.1" creator="VisuGPX - https://www.visugpx.com">
  <metadata>
    <name>04-Ve-St Laurent du Verdon</name>
    <desc><![CDATA[04-Ve-St Laurent du Verdon : le lac - le village
2026-02-20-JF]]></desc>
  </metadata>
  <trk>
    <name><![CDATA[2026-02-20-V-St laurent du V]]></name>
    <extensions>
      <line xmlns="http://www.topografix.com/GPX/gpx_style/0/2">
        <width>4</width>
      </line>
    </extensions>
    <trkseg>
      <trkpt lat="43.71715" lon="6.08806">
        <ele>409.3</ele>
        <time>2026-02-20T08:57:55.000Z</time>
      </trkpt>
      <trkpt lat="43.71715" lon="6.08806">
        <ele>409.3</ele>
        <time>2026-02-20T08:57:56.000Z</time>
      </trkpt>
      <trkpt lat="43.71715" lon="6.08809">
        <ele>409.6</ele>
        <time>2026-02-20T08:58:25.000Z</time>
      </trkpt>
      <trkpt lat="43.71715" lon="6.08809">
        <ele>409.6</ele>
        <time>2026-02-20T08:58:25.000Z</time>
      </trkpt>
      <trkpt lat="43.71712" lon="6.08806">
        <ele>409.3</ele>
        <time>2026-02-20T08:59:44.000Z</time>
      </trkpt>
      <trkpt lat="43.71711" lon="6.08793">
        <ele>409.5</ele>
        <time>2026-02-20T09:00:02.000Z</time>
      </trkpt>
      <trkpt lat="43.71708" lon="6.08783">
        <ele>409.7</ele>
        <time>2026-02-20T09:00:30.000Z</time>
      </trkpt>
      <trkpt lat="43.71704" lon="6.08789">
        <ele>409.7</ele>
        <time>2026-02-20T09:00:43.000Z</time>
      </trkpt>
      <trkpt lat="43.71697" lon="6.08798">
        <ele>409.7</ele>
        <time>2026-02-20T09:00:51.000Z</time>
      </trkpt>
      <trkpt lat="43.71694" lon="6.08786">
        <ele>407.9</ele>
        <time>2026-02-20T09:01:27.000Z</time>
      </trkpt>
      <trkpt lat="43.71701" lon="6.08776">
        <ele>407.5</ele>
        <time>2026-02-20T09:01:38.000Z</time>
      </trkpt>
      <trkpt lat="43.71708" lon="6.08767">
        <ele>407.7</ele>
        <time>2026-02-20T09:01:49.000Z</time>
      </trkpt>
      <trkpt lat="43.71715" lon="6.08759">
        <ele>408.3</ele>
        <time>2026-02-20T09:02:00.000Z</time>
      </trkpt>
      <trkpt lat="43.71722" lon="6.0875">
        <ele>407.2</ele>
        <time>2026-02-20T09:02:09.000Z</time>
      </trkpt>
      <trkpt lat="43.71726" lon="6.08738">
        <ele>406.3</ele>
        <time>2026-02-20T09:02:18.000Z</time>
      </trkpt>
      <trkpt lat="43.71734" lon="6.08732">
        <ele>407.5</ele>
        <time>2026-02-20T09:02:36.000Z</time>
      </trkpt>
      <trkpt lat="43.71741" lon="6.08724">
        <ele>407.5</ele>
        <time>2026-02-20T09:02:49.000Z</time>
      </trkpt>
      <trkpt lat="43.71748" lon="6.08715">
        <ele>406.9</ele>
        <time>2026-02-20T09:02:56.000Z</time>
      </trkpt>
      <trkpt lat="43.71755" lon="6.08706">
        <ele>406.9</ele>
        <time>2026-02-20T09:03:03.000Z</time>
      </trkpt>
      <trkpt lat="43.71763" lon="6.08698">
        <ele>406.9</ele>
        <time>2026-02-20T09:03:10.000Z</time>
      </trkpt>
      <trkpt lat="43.71769" lon="6.08689">
        <ele>407.5</ele>
        <time>2026-02-20T09:03:16.000Z</time>
      </trkpt>
      <trkpt lat="43.71775" lon="6.08679">
        <ele>407.5</ele>
        <time>2026-02-20T09:03:23.000Z</time>
      </trkpt>
      <trkpt lat="43.71783" lon="6.08671">
        <ele>407.3</ele>
        <time>2026-02-20T09:03:30.000Z</time>
      </trkpt>
      <trkpt lat="43.71791" lon="6.08663">
        <ele>407.1</ele>
        <time>2026-02-20T09:03:38.000Z</time>
      </trkpt>
      <trkpt lat="43.718" lon="6.08659">
        <ele>407.3</ele>
        <time>2026-02-20T09:03:55.000Z</time>
      </trkpt>
      <trkpt lat="43.71808" lon="6.08655">
        <ele>408.8</ele>
        <time>2026-02-20T09:04:05.000Z</time>
      </trkpt>
      <trkpt lat="43.71817" lon="6.08649">
        <ele>409.8</ele>
        <time>2026-02-20T09:04:14.000Z</time>
      </trkpt>
      <trkpt lat="43.71827" lon="6.08649">
        <ele>410.7</ele>
        <time>2026-02-20T09:04:22.000Z</time>
      </trkpt>
      <trkpt lat="43.71836" lon="6.08647">
        <ele>412.1</ele>
        <time>2026-02-20T09:04:32.000Z</time>
      </trkpt>
      <trkpt lat="43.71846" lon="6.08648">
        <ele>412.7</ele>
        <time>2026-02-20T09:04:40.000Z</time>
      </trkpt>
      <trkpt lat="43.71855" lon="6.08647">
        <ele>412.7</ele>
        <time>2026-02-20T09:04:47.000Z</time>
      </trkpt>
      <trkpt lat="43.71862" lon="6.08639">
        <ele>412.7</ele>
        <time>2026-02-20T09:04:56.000Z</time>
      </trkpt>
      <trkpt lat="43.71865" lon="6.08627">
        <ele>412.8</ele>
        <time>2026-02-20T09:05:06.000Z</time>
      </trkpt>
      <trkpt lat="43.71864" lon="6.08615">
        <ele>413.1</ele>
        <time>2026-02-20T09:05:15.000Z</time>
      </trkpt>
      <trkpt lat="43.71862" lon="6.08601">
        <ele>413.7</ele>
        <time>2026-02-20T09:05:24.000Z</time>
      </trkpt>
      <trkpt lat="43.71862" lon="6.08588">
        <ele>414.4</ele>
        <time>2026-02-20T09:05:31.000Z</time>
      </trkpt>
      <trkpt lat="43.71862" lon="6.08575">
        <ele>415.1</ele>
        <time>2026-02-20T09:05:39.000Z</time>
      </trkpt>
      <trkpt lat="43.71862" lon="6.08562">
        <ele>415.7</ele>
        <time>2026-02-20T09:05:48.000Z</time>
      </trkpt>
      <trkpt lat="43.71865" lon="6.08549">
        <ele>415.8</ele>
        <time>2026-02-20T09:05:55.000Z</time>
      </trkpt>
      <trkpt lat="43.71864" lon="6.08536">
        <ele>415.6</ele>
        <time>2026-02-20T09:06:07.000Z</time>
      </trkpt>
      <trkpt lat="43.71863" lon="6.08523">
        <ele>415.5</ele>
        <time>2026-02-20T09:06:15.000Z</time>
      </trkpt>
      <trkpt lat="43.71862" lon="6.0851">
        <ele>415.3</ele>
        <time>2026-02-20T09:06:23.000Z</time>
      </trkpt>
      <trkpt lat="43.71862" lon="6.08497">
        <ele>414.8</ele>
        <time>2026-02-20T09:06:31.000Z</time>
      </trkpt>
      <trkpt lat="43.7186" lon="6.08483">
        <ele>415.2</ele>
        <time>2026-02-20T09:06:39.000Z</time>
      </trkpt>
      <trkpt lat="43.7186" lon="6.0847">
        <ele>415.8</ele>
        <time>2026-02-20T09:06:47.000Z</time>
      </trkpt>
      <trkpt lat="43.71861" lon="6.08457">
        <ele>415.5</ele>
        <time>2026-02-20T09:06:55.000Z</time>
      </trkpt>
      <trkpt lat="43.71863" lon="6.08444">
        <ele>415</ele>
        <time>2026-02-20T09:07:03.000Z</time>
      </trkpt>
      <trkpt lat="43.7186" lon="6.08432">
        <ele>414.8</ele>
        <time>2026-02-20T09:07:11.000Z</time>
      </trkpt>
      <trkpt lat="43.71858" lon="6.08419">
        <ele>414.8</ele>
        <time>2026-02-20T09:07:21.000Z</time>
      </trkpt>
      <trkpt lat="43.71858" lon="6.08406">
        <ele>414.8</ele>
        <time>2026-02-20T09:07:33.000Z</time>
      </trkpt>
      <trkpt lat="43.71864" lon="6.08397">
        <ele>414.8</ele>
        <time>2026-02-20T09:07:52.000Z</time>
      </trkpt>
      <trkpt lat="43.71873" lon="6.0839">
        <ele>414.6</ele>
        <time>2026-02-20T09:08:09.000Z</time>
      </trkpt>
      <trkpt lat="43.71883" lon="6.08387">
        <ele>414.4</ele>
        <time>2026-02-20T09:08:17.000Z</time>
      </trkpt>
      <trkpt lat="43.7189" lon="6.08379">
        <ele>414.2</ele>
        <time>2026-02-20T09:08:25.000Z</time>
      </trkpt>
      <trkpt lat="43.71898" lon="6.08371">
        <ele>414</ele>
        <time>2026-02-20T09:08:37.000Z</time>
      </trkpt>
      <trkpt lat="43.71904" lon="6.08362">
        <ele>413.1</ele>
        <time>2026-02-20T09:08:56.000Z</time>
      </trkpt>
      <trkpt lat="43.71914" lon="6.08358">
        <ele>412.6</ele>
        <time>2026-02-20T09:09:03.000Z</time>
      </trkpt>
      <trkpt lat="43.71922" lon="6.08353">
        <ele>411.4</ele>
        <time>2026-02-20T09:09:14.000Z</time>
      </trkpt>
      <trkpt lat="43.71928" lon="6.08342">
        <ele>410.2</ele>
        <time>2026-02-20T09:09:24.000Z</time>
      </trkpt>
      <trkpt lat="43.71929" lon="6.08328">
        <ele>409.3</ele>
        <time>2026-02-20T09:09:34.000Z</time>
      </trkpt>
      <trkpt lat="43.71932" lon="6.08315">
        <ele>407.4</ele>
        <time>2026-02-20T09:09:58.000Z</time>
      </trkpt>
      <trkpt lat="43.71936" lon="6.08302">
        <ele>406.2</ele>
        <time>2026-02-20T09:10:08.000Z</time>
      </trkpt>
      <trkpt lat="43.71943" lon="6.08293">
        <ele>405.1</ele>
        <time>2026-02-20T09:10:16.000Z</time>
      </trkpt>
      <trkpt lat="43.71953" lon="6.08291">
        <ele>401.7</ele>
        <time>2026-02-20T09:10:36.000Z</time>
      </trkpt>
      <trkpt lat="43.71962" lon="6.08291">
        <ele>400.2</ele>
        <time>2026-02-20T09:10:56.000Z</time>
      </trkpt>
      <trkpt lat="43.71971" lon="6.08295">
        <ele>397</ele>
        <time>2026-02-20T09:11:11.000Z</time>
      </trkpt>
      <trkpt lat="43.71974" lon="6.08307">
        <ele>396.5</ele>
        <time>2026-02-20T09:11:30.000Z</time>
      </trkpt>
      <trkpt lat="43.7198" lon="6.08318">
        <ele>396.2</ele>
        <time>2026-02-20T09:11:41.000Z</time>
      </trkpt>
      <trkpt lat="43.71989" lon="6.08318">
        <ele>393.8</ele>
        <time>2026-02-20T09:11:55.000Z</time>
      </trkpt>
      <trkpt lat="43.71999" lon="6.08321">
        <ele>392.7</ele>
        <time>2026-02-20T09:12:02.000Z</time>
      </trkpt>
      <trkpt lat="43.72007" lon="6.08312">
        <ele>392.8</ele>
        <time>2026-02-20T09:12:08.000Z</time>
      </trkpt>
      <trkpt lat="43.72016" lon="6.08305">
        <ele>391.8</ele>
        <time>2026-02-20T09:12:26.000Z</time>
      </trkpt>
      <trkpt lat="43.72021" lon="6.08293">
        <ele>391.9</ele>
        <time>2026-02-20T09:12:38.000Z</time>
      </trkpt>
      <trkpt lat="43.72028" lon="6.08285">
        <ele>392.2</ele>
        <time>2026-02-20T09:12:46.000Z</time>
      </trkpt>
      <trkpt lat="43.72035" lon="6.08277">
        <ele>393.3</ele>
        <time>2026-02-20T09:12:58.000Z</time>
      </trkpt>
      <trkpt lat="43.72042" lon="6.08269">
        <ele>393.8</ele>
        <time>2026-02-20T09:13:06.000Z</time>
      </trkpt>
      <trkpt lat="43.72051" lon="6.08273">
        <ele>394.2</ele>
        <time>2026-02-20T09:13:15.000Z</time>
      </trkpt>
      <trkpt lat="43.7206" lon="6.08272">
        <ele>394.2</ele>
        <time>2026-02-20T09:13:26.000Z</time>
      </trkpt>
      <trkpt lat="43.72069" lon="6.08274">
        <ele>393.6</ele>
        <time>2026-02-20T09:13:37.000Z</time>
      </trkpt>
      <trkpt lat="43.72079" lon="6.08274">
        <ele>393.5</ele>
        <time>2026-02-20T09:13:48.000Z</time>
      </trkpt>
      <trkpt lat="43.72088" lon="6.08274">
        <ele>393.4</ele>
        <time>2026-02-20T09:13:58.000Z</time>
      </trkpt>
      <trkpt lat="43.72097" lon="6.08274">
        <ele>393.4</ele>
        <time>2026-02-20T09:14:10.000Z</time>
      </trkpt>
      <trkpt lat="43.72107" lon="6.08275">
        <ele>393.4</ele>
        <time>2026-02-20T09:14:19.000Z</time>
      </trkpt>
      <trkpt lat="43.72116" lon="6.08271">
        <ele>393.5</ele>
        <time>2026-02-20T09:14:47.000Z</time>
      </trkpt>
      <trkpt lat="43.72126" lon="6.0827">
        <ele>393.9</ele>
        <time>2026-02-20T09:14:57.000Z</time>
      </trkpt>
      <trkpt lat="43.72135" lon="6.08271">
        <ele>394.3</ele>
        <time>2026-02-20T09:15:07.000Z</time>
      </trkpt>
      <trkpt lat="43.72144" lon="6.08276">
        <ele>394.6</ele>
        <time>2026-02-20T09:15:15.000Z</time>
      </trkpt>
      <trkpt lat="43.72153" lon="6.08275">
        <ele>395</ele>
        <time>2026-02-20T09:15:27.000Z</time>
      </trkpt>
      <trkpt lat="43.7216" lon="6.08266">
        <ele>395.2</ele>
        <time>2026-02-20T09:15:39.000Z</time>
      </trkpt>
      <trkpt lat="43.72169" lon="6.08261">
        <ele>395.8</ele>
        <time>2026-02-20T09:15:48.000Z</time>
      </trkpt>
      <trkpt lat="43.72177" lon="6.08256">
        <ele>396.7</ele>
        <time>2026-02-20T09:15:55.000Z</time>
      </trkpt>
      <trkpt lat="43.72187" lon="6.08251">
        <ele>397</ele>
        <time>2026-02-20T09:16:03.000Z</time>
      </trkpt>
      <trkpt lat="43.72196" lon="6.08249">
        <ele>397.2</ele>
        <time>2026-02-20T09:16:11.000Z</time>
      </trkpt>
      <trkpt lat="43.72206" lon="6.08247">
        <ele>397.2</ele>
        <time>2026-02-20T09:16:20.000Z</time>
      </trkpt>
      <trkpt lat="43.72215" lon="6.08248">
        <ele>397.3</ele>
        <time>2026-02-20T09:16:28.000Z</time>
      </trkpt>
      <trkpt lat="43.72225" lon="6.08247">
        <ele>397.2</ele>
        <time>2026-02-20T09:16:35.000Z</time>
      </trkpt>
      <trkpt lat="43.72234" lon="6.08244">
        <ele>397.4</ele>
        <time>2026-02-20T09:16:46.000Z</time>
      </trkpt>
      <trkpt lat="43.72243" lon="6.08241">
        <ele>397.4</ele>
        <time>2026-02-20T09:17:10.000Z</time>
      </trkpt>
      <trkpt lat="43.72252" lon="6.08236">
        <ele>397.6</ele>
        <time>2026-02-20T09:17:19.000Z</time>
      </trkpt>
      <trkpt lat="43.72259" lon="6.08227">
        <ele>397.6</ele>
        <time>2026-02-20T09:17:26.000Z</time>
      </trkpt>
      <trkpt lat="43.72265" lon="6.08217">
        <ele>397.6</ele>
        <time>2026-02-20T09:17:33.000Z</time>
      </trkpt>
      <trkpt lat="43.7227" lon="6.08207">
        <ele>397.9</ele>
        <time>2026-02-20T09:17:41.000Z</time>
      </trkpt>
      <trkpt lat="43.72278" lon="6.08201">
        <ele>397.9</ele>
        <time>2026-02-20T09:17:49.000Z</time>
      </trkpt>
      <trkpt lat="43.72288" lon="6.08205">
        <ele>398.2</ele>
        <time>2026-02-20T09:17:58.000Z</time>
      </trkpt>
      <trkpt lat="43.72297" lon="6.08208">
        <ele>398.3</ele>
        <time>2026-02-20T09:18:11.000Z</time>
      </trkpt>
      <trkpt lat="43.72306" lon="6.08211">
        <ele>398.5</ele>
        <time>2026-02-20T09:18:19.000Z</time>
      </trkpt>
      <trkpt lat="43.72313" lon="6.0822">
        <ele>398.9</ele>
        <time>2026-02-20T09:18:28.000Z</time>
      </trkpt>
      <trkpt lat="43.7232" lon="6.08231">
        <ele>399</ele>
        <time>2026-02-20T09:18:36.000Z</time>
      </trkpt>
      <trkpt lat="43.72326" lon="6.08242">
        <ele>399.1</ele>
        <time>2026-02-20T09:18:47.000Z</time>
      </trkpt>
      <trkpt lat="43.72333" lon="6.08251">
        <ele>399.1</ele>
        <time>2026-02-20T09:18:58.000Z</time>
      </trkpt>
      <trkpt lat="43.72341" lon="6.08259">
        <ele>399.3</ele>
        <time>2026-02-20T09:19:07.000Z</time>
      </trkpt>
      <trkpt lat="43.72349" lon="6.08265">
        <ele>399.5</ele>
        <time>2026-02-20T09:19:14.000Z</time>
      </trkpt>
      <trkpt lat="43.72358" lon="6.08269">
        <ele>399.6</ele>
        <time>2026-02-20T09:19:24.000Z</time>
      </trkpt>
      <trkpt lat="43.72367" lon="6.08272">
        <ele>400</ele>
        <time>2026-02-20T09:19:32.000Z</time>
      </trkpt>
      <trkpt lat="43.72377" lon="6.08276">
        <ele>400.3</ele>
        <time>2026-02-20T09:19:41.000Z</time>
      </trkpt>
      <trkpt lat="43.72386" lon="6.0828">
        <ele>400.5</ele>
        <time>2026-02-20T09:19:49.000Z</time>
      </trkpt>
      <trkpt lat="43.72394" lon="6.08287">
        <ele>400.6</ele>
        <time>2026-02-20T09:19:58.000Z</time>
      </trkpt>
      <trkpt lat="43.72404" lon="6.0829">
        <ele>400.7</ele>
        <time>2026-02-20T09:20:06.000Z</time>
      </trkpt>
      <trkpt lat="43.72413" lon="6.08293">
        <ele>400.8</ele>
        <time>2026-02-20T09:20:18.000Z</time>
      </trkpt>
      <trkpt lat="43.72421" lon="6.08301">
        <ele>400.8</ele>
        <time>2026-02-20T09:20:26.000Z</time>
      </trkpt>
      <trkpt lat="43.7243" lon="6.08306">
        <ele>400.7</ele>
        <time>2026-02-20T09:20:34.000Z</time>
      </trkpt>
      <trkpt lat="43.72438" lon="6.08313">
        <ele>400.9</ele>
        <time>2026-02-20T09:20:43.000Z</time>
      </trkpt>
      <trkpt lat="43.72447" lon="6.08317">
        <ele>401.4</ele>
        <time>2026-02-20T09:20:59.000Z</time>
      </trkpt>
      <trkpt lat="43.72456" lon="6.08323">
        <ele>401.5</ele>
        <time>2026-02-20T09:21:06.000Z</time>
      </trkpt>
      <trkpt lat="43.72466" lon="6.08322">
        <ele>401.7</ele>
        <time>2026-02-20T09:21:14.000Z</time>
      </trkpt>
      <trkpt lat="43.72475" lon="6.0832">
        <ele>401.9</ele>
        <time>2026-02-20T09:21:23.000Z</time>
      </trkpt>
      <trkpt lat="43.72485" lon="6.08314">
        <ele>401.7</ele>
        <time>2026-02-20T09:21:32.000Z</time>
      </trkpt>
      <trkpt lat="43.72493" lon="6.08307">
        <ele>401.6</ele>
        <time>2026-02-20T09:21:39.000Z</time>
      </trkpt>
      <trkpt lat="43.72501" lon="6.08299">
        <ele>401.4</ele>
        <time>2026-02-20T09:21:48.000Z</time>
      </trkpt>
      <trkpt lat="43.72511" lon="6.08297">
        <ele>401.4</ele>
        <time>2026-02-20T09:21:58.000Z</time>
      </trkpt>
      <trkpt lat="43.7252" lon="6.08299">
        <ele>401.4</ele>
        <time>2026-02-20T09:22:08.000Z</time>
      </trkpt>
      <trkpt lat="43.72527" lon="6.08309">
        <ele>401.5</ele>
        <time>2026-02-20T09:22:19.000Z</time>
      </trkpt>
      <trkpt lat="43.72532" lon="6.0832">
        <ele>401.8</ele>
        <time>2026-02-20T09:22:30.000Z</time>
      </trkpt>
      <trkpt lat="43.72534" lon="6.08333">
        <ele>401.8</ele>
        <time>2026-02-20T09:22:39.000Z</time>
      </trkpt>
      <trkpt lat="43.72536" lon="6.08346">
        <ele>402</ele>
        <time>2026-02-20T09:22:48.000Z</time>
      </trkpt>
      <trkpt lat="43.72538" lon="6.08358">
        <ele>402</ele>
        <time>2026-02-20T09:22:58.000Z</time>
      </trkpt>
      <trkpt lat="43.72545" lon="6.08368">
        <ele>402.1</ele>
        <time>2026-02-20T09:23:10.000Z</time>
      </trkpt>
      <trkpt lat="43.72547" lon="6.08381">
        <ele>402.2</ele>
        <time>2026-02-20T09:23:24.000Z</time>
      </trkpt>
      <trkpt lat="43.72553" lon="6.08391">
        <ele>402</ele>
        <time>2026-02-20T09:23:34.000Z</time>
      </trkpt>
      <trkpt lat="43.72552" lon="6.08404">
        <ele>402.1</ele>
        <time>2026-02-20T09:23:48.000Z</time>
      </trkpt>
      <trkpt lat="43.7255" lon="6.08417">
        <ele>402.1</ele>
        <time>2026-02-20T09:24:00.000Z</time>
      </trkpt>
      <trkpt lat="43.72549" lon="6.08431">
        <ele>402.2</ele>
        <time>2026-02-20T09:24:10.000Z</time>
      </trkpt>
      <trkpt lat="43.72547" lon="6.08443">
        <ele>402.2</ele>
        <time>2026-02-20T09:24:21.000Z</time>
      </trkpt>
      <trkpt lat="43.72541" lon="6.08454">
        <ele>402.4</ele>
        <time>2026-02-20T09:24:31.000Z</time>
      </trkpt>
      <trkpt lat="43.72537" lon="6.08466">
        <ele>402.4</ele>
        <time>2026-02-20T09:24:42.000Z</time>
      </trkpt>
      <trkpt lat="43.7253" lon="6.08475">
        <ele>402.5</ele>
        <time>2026-02-20T09:24:51.000Z</time>
      </trkpt>
      <trkpt lat="43.72523" lon="6.08484">
        <ele>402.6</ele>
        <time>2026-02-20T09:25:01.000Z</time>
      </trkpt>
      <trkpt lat="43.72517" lon="6.08494">
        <ele>402.9</ele>
        <time>2026-02-20T09:25:10.000Z</time>
      </trkpt>
      <trkpt lat="43.72514" lon="6.08507">
        <ele>403.2</ele>
        <time>2026-02-20T09:25:19.000Z</time>
      </trkpt>
      <trkpt lat="43.72506" lon="6.08514">
        <ele>403.3</ele>
        <time>2026-02-20T09:25:28.000Z</time>
      </trkpt>
      <trkpt lat="43.72498" lon="6.08523">
        <ele>403.8</ele>
        <time>2026-02-20T09:25:37.000Z</time>
      </trkpt>
      <trkpt lat="43.72493" lon="6.08534">
        <ele>403.7</ele>
        <time>2026-02-20T09:25:46.000Z</time>
      </trkpt>
      <trkpt lat="43.72488" lon="6.08546">
        <ele>403.8</ele>
        <time>2026-02-20T09:25:58.000Z</time>
      </trkpt>
      <trkpt lat="43.72485" lon="6.08558">
        <ele>403.8</ele>
        <time>2026-02-20T09:26:06.000Z</time>
      </trkpt>
      <trkpt lat="43.72481" lon="6.08571">
        <ele>404.1</ele>
        <time>2026-02-20T09:26:15.000Z</time>
      </trkpt>
      <trkpt lat="43.72476" lon="6.08583">
        <ele>404.1</ele>
        <time>2026-02-20T09:26:23.000Z</time>
      </trkpt>
      <trkpt lat="43.72473" lon="6.08595">
        <ele>404</ele>
        <time>2026-02-20T09:26:32.000Z</time>
      </trkpt>
      <trkpt lat="43.72472" lon="6.08608">
        <ele>403.9</ele>
        <time>2026-02-20T09:26:42.000Z</time>
      </trkpt>
      <trkpt lat="43.7247" lon="6.08621">
        <ele>404</ele>
        <time>2026-02-20T09:26:52.000Z</time>
      </trkpt>
      <trkpt lat="43.72469" lon="6.08634">
        <ele>404.6</ele>
        <time>2026-02-20T09:27:01.000Z</time>
      </trkpt>
      <trkpt lat="43.72469" lon="6.08647">
        <ele>404.8</ele>
        <time>2026-02-20T09:27:15.000Z</time>
      </trkpt>
      <trkpt lat="43.72467" lon="6.0866">
        <ele>405</ele>
        <time>2026-02-20T09:27:29.000Z</time>
      </trkpt>
      <trkpt lat="43.72467" lon="6.08672">
        <ele>405.3</ele>
        <time>2026-02-20T09:27:38.000Z</time>
      </trkpt>
      <trkpt lat="43.72467" lon="6.08686">
        <ele>405.2</ele>
        <time>2026-02-20T09:27:47.000Z</time>
      </trkpt>
      <trkpt lat="43.72463" lon="6.08697">
        <ele>405.3</ele>
        <time>2026-02-20T09:27:56.000Z</time>
      </trkpt>
      <trkpt lat="43.72458" lon="6.08708">
        <ele>405.5</ele>
        <time>2026-02-20T09:28:05.000Z</time>
      </trkpt>
      <trkpt lat="43.72451" lon="6.08717">
        <ele>405.5</ele>
        <time>2026-02-20T09:28:14.000Z</time>
      </trkpt>
      <trkpt lat="43.72444" lon="6.08726">
        <ele>405.6</ele>
        <time>2026-02-20T09:28:23.000Z</time>
      </trkpt>
      <trkpt lat="43.72438" lon="6.08737">
        <ele>405.7</ele>
        <time>2026-02-20T09:28:38.000Z</time>
      </trkpt>
      <trkpt lat="43.72431" lon="6.08744">
        <ele>405.8</ele>
        <time>2026-02-20T09:28:46.000Z</time>
      </trkpt>
      <trkpt lat="43.72422" lon="6.0875">
        <ele>405.8</ele>
        <time>2026-02-20T09:28:53.000Z</time>
      </trkpt>
      <trkpt lat="43.72414" lon="6.08756">
        <ele>405.8</ele>
        <time>2026-02-20T09:29:02.000Z</time>
      </trkpt>
      <trkpt lat="43.7241" lon="6.08768">
        <ele>405.9</ele>
        <time>2026-02-20T09:29:09.000Z</time>
      </trkpt>
      <trkpt lat="43.72408" lon="6.0878">
        <ele>406</ele>
        <time>2026-02-20T09:29:17.000Z</time>
      </trkpt>
      <trkpt lat="43.72403" lon="6.0879">
        <ele>406</ele>
        <time>2026-02-20T09:29:26.000Z</time>
      </trkpt>
      <trkpt lat="43.72395" lon="6.08798">
        <ele>406.1</ele>
        <time>2026-02-20T09:29:35.000Z</time>
      </trkpt>
      <trkpt lat="43.7239" lon="6.08809">
        <ele>406.6</ele>
        <time>2026-02-20T09:29:45.000Z</time>
      </trkpt>
      <trkpt lat="43.72384" lon="6.08819">
        <ele>406.6</ele>
        <time>2026-02-20T09:29:55.000Z</time>
      </trkpt>
      <trkpt lat="43.72382" lon="6.08827">
        <ele>406.6</ele>
        <time>2026-02-20T09:30:24.000Z</time>
      </trkpt>
      <trkpt lat="43.72383" lon="6.08831">
        <ele>406.4</ele>
        <time>2026-02-20T09:30:39.000Z</time>
      </trkpt>
      <trkpt lat="43.72384" lon="6.08844">
        <ele>406.5</ele>
        <time>2026-02-20T09:30:49.000Z</time>
      </trkpt>
      <trkpt lat="43.72387" lon="6.08856">
        <ele>406.4</ele>
        <time>2026-02-20T09:30:57.000Z</time>
      </trkpt>
      <trkpt lat="43.72386" lon="6.08869">
        <ele>406.5</ele>
        <time>2026-02-20T09:31:09.000Z</time>
      </trkpt>
      <trkpt lat="43.72381" lon="6.0888">
        <ele>406.8</ele>
        <time>2026-02-20T09:31:19.000Z</time>
      </trkpt>
      <trkpt lat="43.72376" lon="6.0889">
        <ele>407.2</ele>
        <time>2026-02-20T09:31:30.000Z</time>
      </trkpt>
      <trkpt lat="43.72375" lon="6.08904">
        <ele>407.4</ele>
        <time>2026-02-20T09:31:40.000Z</time>
      </trkpt>
      <trkpt lat="43.7237" lon="6.08915">
        <ele>407.6</ele>
        <time>2026-02-20T09:31:48.000Z</time>
      </trkpt>
      <trkpt lat="43.72366" lon="6.08927">
        <ele>407.3</ele>
        <time>2026-02-20T09:31:58.000Z</time>
      </trkpt>
      <trkpt lat="43.72366" lon="6.0894">
        <ele>407.1</ele>
        <time>2026-02-20T09:32:05.000Z</time>
      </trkpt>
      <trkpt lat="43.72367" lon="6.08953">
        <ele>406.9</ele>
        <time>2026-02-20T09:32:13.000Z</time>
      </trkpt>
      <trkpt lat="43.72369" lon="6.08966">
        <ele>406.8</ele>
        <time>2026-02-20T09:32:22.000Z</time>
      </trkpt>
      <trkpt lat="43.7237" lon="6.08979">
        <ele>407.2</ele>
        <time>2026-02-20T09:32:32.000Z</time>
      </trkpt>
      <trkpt lat="43.72375" lon="6.08988">
        <ele>407.7</ele>
        <time>2026-02-20T09:32:59.000Z</time>
      </trkpt>
      <trkpt lat="43.72375" lon="6.08988">
        <ele>407.7</ele>
        <time>2026-02-20T09:33:00.000Z</time>
      </trkpt>
      <trkpt lat="43.72373" lon="6.0899">
        <ele>408.5</ele>
        <time>2026-02-20T09:33:28.000Z</time>
      </trkpt>
      <trkpt lat="43.72373" lon="6.08993">
        <ele>408.4</ele>
        <time>2026-02-20T09:33:41.000Z</time>
      </trkpt>
      <trkpt lat="43.72373" lon="6.08993">
        <ele>408.4</ele>
        <time>2026-02-20T09:33:53.000Z</time>
      </trkpt>
      <trkpt lat="43.72376" lon="6.08991">
        <ele>408.2</ele>
        <time>2026-02-20T09:33:58.000Z</time>
      </trkpt>
      <trkpt lat="43.72385" lon="6.08987">
        <ele>408</ele>
        <time>2026-02-20T09:34:43.000Z</time>
      </trkpt>
      <trkpt lat="43.72394" lon="6.08986">
        <ele>408.7</ele>
        <time>2026-02-20T09:34:53.000Z</time>
      </trkpt>
      <trkpt lat="43.72403" lon="6.08992">
        <ele>409</ele>
        <time>2026-02-20T09:35:01.000Z</time>
      </trkpt>
      <trkpt lat="43.72412" lon="6.08989">
        <ele>409.5</ele>
        <time>2026-02-20T09:35:11.000Z</time>
      </trkpt>
      <trkpt lat="43.72422" lon="6.08987">
        <ele>411.4</ele>
        <time>2026-02-20T09:35:24.000Z</time>
      </trkpt>
      <trkpt lat="43.72431" lon="6.08988">
        <ele>412.4</ele>
        <time>2026-02-20T09:35:36.000Z</time>
      </trkpt>
      <trkpt lat="43.7243" lon="6.09001">
        <ele>414.6</ele>
        <time>2026-02-20T09:35:50.000Z</time>
      </trkpt>
      <trkpt lat="43.72432" lon="6.09014">
        <ele>415.4</ele>
        <time>2026-02-20T09:36:01.000Z</time>
      </trkpt>
      <trkpt lat="43.72438" lon="6.09024">
        <ele>415.8</ele>
        <time>2026-02-20T09:36:13.000Z</time>
      </trkpt>
      <trkpt lat="43.72442" lon="6.09036">
        <ele>416</ele>
        <time>2026-02-20T09:36:22.000Z</time>
      </trkpt>
      <trkpt lat="43.72451" lon="6.09042">
        <ele>416.8</ele>
        <time>2026-02-20T09:36:32.000Z</time>
      </trkpt>
      <trkpt lat="43.7246" lon="6.09043">
        <ele>417.8</ele>
        <time>2026-02-20T09:36:45.000Z</time>
      </trkpt>
      <trkpt lat="43.72467" lon="6.09051">
        <ele>418.4</ele>
        <time>2026-02-20T09:36:56.000Z</time>
      </trkpt>
      <trkpt lat="43.72475" lon="6.09058">
        <ele>419.2</ele>
        <time>2026-02-20T09:37:09.000Z</time>
      </trkpt>
      <trkpt lat="43.72473" lon="6.09063">
        <ele>419.8</ele>
        <time>2026-02-20T09:37:28.000Z</time>
      </trkpt>
      <trkpt lat="43.72479" lon="6.0907">
        <ele>420.2</ele>
        <time>2026-02-20T09:40:13.000Z</time>
      </trkpt>
      <trkpt lat="43.72489" lon="6.0907">
        <ele>420.8</ele>
        <time>2026-02-20T09:40:31.000Z</time>
      </trkpt>
      <trkpt lat="43.72498" lon="6.09068">
        <ele>421.9</ele>
        <time>2026-02-20T09:40:44.000Z</time>
      </trkpt>
      <trkpt lat="43.72505" lon="6.09076">
        <ele>422.7</ele>
        <time>2026-02-20T09:40:58.000Z</time>
      </trkpt>
      <trkpt lat="43.72515" lon="6.0908">
        <ele>423.1</ele>
        <time>2026-02-20T09:41:09.000Z</time>
      </trkpt>
      <trkpt lat="43.72523" lon="6.09086">
        <ele>423.3</ele>
        <time>2026-02-20T09:41:20.000Z</time>
      </trkpt>
      <trkpt lat="43.72531" lon="6.09092">
        <ele>423.7</ele>
        <time>2026-02-20T09:41:31.000Z</time>
      </trkpt>
      <trkpt lat="43.7254" lon="6.09098">
        <ele>424.2</ele>
        <time>2026-02-20T09:41:40.000Z</time>
      </trkpt>
      <trkpt lat="43.72548" lon="6.09101">
        <ele>424.6</ele>
        <time>2026-02-20T09:41:51.000Z</time>
      </trkpt>
      <trkpt lat="43.72557" lon="6.09104">
        <ele>424.5</ele>
        <time>2026-02-20T09:42:07.000Z</time>
      </trkpt>
      <trkpt lat="43.72567" lon="6.09105">
        <ele>424.9</ele>
        <time>2026-02-20T09:42:16.000Z</time>
      </trkpt>
      <trkpt lat="43.72576" lon="6.09107">
        <ele>425.3</ele>
        <time>2026-02-20T09:42:25.000Z</time>
      </trkpt>
      <trkpt lat="43.72585" lon="6.09111">
        <ele>426.2</ele>
        <time>2026-02-20T09:42:36.000Z</time>
      </trkpt>
      <trkpt lat="43.72594" lon="6.09116">
        <ele>426.3</ele>
        <time>2026-02-20T09:42:46.000Z</time>
      </trkpt>
      <trkpt lat="43.72603" lon="6.09118">
        <ele>426.5</ele>
        <time>2026-02-20T09:43:11.000Z</time>
      </trkpt>
      <trkpt lat="43.72611" lon="6.09113">
        <ele>426.7</ele>
        <time>2026-02-20T09:43:20.000Z</time>
      </trkpt>
      <trkpt lat="43.7262" lon="6.09117">
        <ele>426.8</ele>
        <time>2026-02-20T09:43:29.000Z</time>
      </trkpt>
      <trkpt lat="43.72629" lon="6.09117">
        <ele>427.1</ele>
        <time>2026-02-20T09:43:40.000Z</time>
      </trkpt>
      <trkpt lat="43.72637" lon="6.09125">
        <ele>427.6</ele>
        <time>2026-02-20T09:44:05.000Z</time>
      </trkpt>
      <trkpt lat="43.72647" lon="6.09127">
        <ele>427.5</ele>
        <time>2026-02-20T09:44:14.000Z</time>
      </trkpt>
      <trkpt lat="43.72656" lon="6.09125">
        <ele>427.3</ele>
        <time>2026-02-20T09:44:21.000Z</time>
      </trkpt>
      <trkpt lat="43.72665" lon="6.09125">
        <ele>427.4</ele>
        <time>2026-02-20T09:44:29.000Z</time>
      </trkpt>
      <trkpt lat="43.72674" lon="6.09125">
        <ele>427.5</ele>
        <time>2026-02-20T09:44:37.000Z</time>
      </trkpt>
      <trkpt lat="43.72683" lon="6.09126">
        <ele>427.6</ele>
        <time>2026-02-20T09:44:45.000Z</time>
      </trkpt>
      <trkpt lat="43.72692" lon="6.09127">
        <ele>427.7</ele>
        <time>2026-02-20T09:44:53.000Z</time>
      </trkpt>
      <trkpt lat="43.72701" lon="6.09125">
        <ele>427.7</ele>
        <time>2026-02-20T09:45:02.000Z</time>
      </trkpt>
      <trkpt lat="43.72711" lon="6.09129">
        <ele>427.7</ele>
        <time>2026-02-20T09:45:12.000Z</time>
      </trkpt>
      <trkpt lat="43.7272" lon="6.09129">
        <ele>427.5</ele>
        <time>2026-02-20T09:45:22.000Z</time>
      </trkpt>
      <trkpt lat="43.72728" lon="6.09124">
        <ele>426.1</ele>
        <time>2026-02-20T09:45:44.000Z</time>
      </trkpt>
      <trkpt lat="43.72729" lon="6.09124">
        <ele>424.6</ele>
        <time>2026-02-20T09:46:30.000Z</time>
      </trkpt>
      <trkpt lat="43.7273" lon="6.09119">
        <ele>424.2</ele>
        <time>2026-02-20T09:47:14.000Z</time>
      </trkpt>
      <trkpt lat="43.72736" lon="6.09109">
        <ele>425</ele>
        <time>2026-02-20T09:47:28.000Z</time>
      </trkpt>
      <trkpt lat="43.72745" lon="6.09104">
        <ele>425.8</ele>
        <time>2026-02-20T09:47:37.000Z</time>
      </trkpt>
      <trkpt lat="43.72754" lon="6.09099">
        <ele>426.1</ele>
        <time>2026-02-20T09:47:49.000Z</time>
      </trkpt>
      <trkpt lat="43.72763" lon="6.091">
        <ele>426</ele>
        <time>2026-02-20T09:48:02.000Z</time>
      </trkpt>
      <trkpt lat="43.72768" lon="6.09089">
        <ele>426.2</ele>
        <time>2026-02-20T09:48:15.000Z</time>
      </trkpt>
      <trkpt lat="43.72771" lon="6.09077">
        <ele>426.4</ele>
        <time>2026-02-20T09:48:27.000Z</time>
      </trkpt>
      <trkpt lat="43.72778" lon="6.09068">
        <ele>426.8</ele>
        <time>2026-02-20T09:48:39.000Z</time>
      </trkpt>
      <trkpt lat="43.7278" lon="6.09056">
        <ele>427.9</ele>
        <time>2026-02-20T09:48:55.000Z</time>
      </trkpt>
      <trkpt lat="43.72788" lon="6.09048">
        <ele>429.1</ele>
        <time>2026-02-20T09:49:11.000Z</time>
      </trkpt>
      <trkpt lat="43.72797" lon="6.09049">
        <ele>430</ele>
        <time>2026-02-20T09:49:27.000Z</time>
      </trkpt>
      <trkpt lat="43.72803" lon="6.0904">
        <ele>430.4</ele>
        <time>2026-02-20T09:49:53.000Z</time>
      </trkpt>
      <trkpt lat="43.72808" lon="6.09029">
        <ele>432.6</ele>
        <time>2026-02-20T09:50:21.000Z</time>
      </trkpt>
      <trkpt lat="43.7281" lon="6.09017">
        <ele>434.8</ele>
        <time>2026-02-20T09:50:42.000Z</time>
      </trkpt>
      <trkpt lat="43.72819" lon="6.09012">
        <ele>435.9</ele>
        <time>2026-02-20T09:51:04.000Z</time>
      </trkpt>
      <trkpt lat="43.72817" lon="6.09005">
        <ele>438.4</ele>
        <time>2026-02-20T09:51:45.000Z</time>
      </trkpt>
      <trkpt lat="43.72815" lon="6.09005">
        <ele>438.3</ele>
        <time>2026-02-20T09:52:06.000Z</time>
      </trkpt>
      <trkpt lat="43.72816" lon="6.09005">
        <ele>438.3</ele>
        <time>2026-02-20T09:52:33.000Z</time>
      </trkpt>
      <trkpt lat="43.72816" lon="6.09005">
        <ele>438.2</ele>
        <time>2026-02-20T09:53:03.000Z</time>
      </trkpt>
      <trkpt lat="43.72815" lon="6.09006">
        <ele>437.9</ele>
        <time>2026-02-20T09:53:36.000Z</time>
      </trkpt>
      <trkpt lat="43.72815" lon="6.09006">
        <ele>437.9</ele>
        <time>2026-02-20T09:53:37.000Z</time>
      </trkpt>
      <trkpt lat="43.72823" lon="6.08999">
        <ele>438.5</ele>
        <time>2026-02-20T09:54:00.000Z</time>
      </trkpt>
      <trkpt lat="43.72831" lon="6.08992">
        <ele>439.9</ele>
        <time>2026-02-20T09:54:14.000Z</time>
      </trkpt>
      <trkpt lat="43.7284" lon="6.08989">
        <ele>441.3</ele>
        <time>2026-02-20T09:54:26.000Z</time>
      </trkpt>
      <trkpt lat="43.72839" lon="6.08976">
        <ele>443.8</ele>
        <time>2026-02-20T09:54:54.000Z</time>
      </trkpt>
      <trkpt lat="43.72843" lon="6.08969">
        <ele>446.8</ele>
        <time>2026-02-20T09:55:43.000Z</time>
      </trkpt>
      <trkpt lat="43.72844" lon="6.08968">
        <ele>447.1</ele>
        <time>2026-02-20T09:55:53.000Z</time>
      </trkpt>
      <trkpt lat="43.72853" lon="6.08973">
        <ele>447.1</ele>
        <time>2026-02-20T09:56:05.000Z</time>
      </trkpt>
      <trkpt lat="43.72845" lon="6.08967">
        <ele>446</ele>
        <time>2026-02-20T09:56:51.000Z</time>
      </trkpt>
      <trkpt lat="43.72841" lon="6.08966">
        <ele>446.1</ele>
        <time>2026-02-20T09:56:56.000Z</time>
      </trkpt>
      <trkpt lat="43.7284" lon="6.08964">
        <ele>446.1</ele>
        <time>2026-02-20T09:57:14.000Z</time>
      </trkpt>
      <trkpt lat="43.72843" lon="6.08962">
        <ele>446.3</ele>
        <time>2026-02-20T09:57:46.000Z</time>
      </trkpt>
      <trkpt lat="43.72841" lon="6.08949">
        <ele>447.4</ele>
        <time>2026-02-20T09:58:07.000Z</time>
      </trkpt>
      <trkpt lat="43.72839" lon="6.08936">
        <ele>448.4</ele>
        <time>2026-02-20T09:58:27.000Z</time>
      </trkpt>
      <trkpt lat="43.72843" lon="6.08925">
        <ele>449.9</ele>
        <time>2026-02-20T09:58:52.000Z</time>
      </trkpt>
      <trkpt lat="43.72846" lon="6.08912">
        <ele>451.6</ele>
        <time>2026-02-20T09:59:05.000Z</time>
      </trkpt>
      <trkpt lat="43.72845" lon="6.089">
        <ele>453.2</ele>
        <time>2026-02-20T09:59:27.000Z</time>
      </trkpt>
      <trkpt lat="43.72849" lon="6.08889">
        <ele>454.8</ele>
        <time>2026-02-20T09:59:43.000Z</time>
      </trkpt>
      <trkpt lat="43.72852" lon="6.08889">
        <ele>456.3</ele>
        <time>2026-02-20T10:00:05.000Z</time>
      </trkpt>
      <trkpt lat="43.72852" lon="6.0889">
        <ele>456.6</ele>
        <time>2026-02-20T10:00:15.000Z</time>
      </trkpt>
      <trkpt lat="43.72852" lon="6.0889">
        <ele>456.7</ele>
        <time>2026-02-20T10:00:26.000Z</time>
      </trkpt>
      <trkpt lat="43.72855" lon="6.08886">
        <ele>456.6</ele>
        <time>2026-02-20T10:00:49.000Z</time>
      </trkpt>
      <trkpt lat="43.7286" lon="6.08875">
        <ele>456.6</ele>
        <time>2026-02-20T10:01:10.000Z</time>
      </trkpt>
      <trkpt lat="43.72868" lon="6.08869">
        <ele>456.9</ele>
        <time>2026-02-20T10:01:21.000Z</time>
      </trkpt>
      <trkpt lat="43.72876" lon="6.08863">
        <ele>457.4</ele>
        <time>2026-02-20T10:01:30.000Z</time>
      </trkpt>
      <trkpt lat="43.72886" lon="6.0886">
        <ele>457.9</ele>
        <time>2026-02-20T10:01:46.000Z</time>
      </trkpt>
      <trkpt lat="43.72889" lon="6.08857">
        <ele>457</ele>
        <time>2026-02-20T10:02:06.000Z</time>
      </trkpt>
      <trkpt lat="43.72893" lon="6.08855">
        <ele>457.1</ele>
        <time>2026-02-20T10:03:56.000Z</time>
      </trkpt>
      <trkpt lat="43.72902" lon="6.08848">
        <ele>456.5</ele>
        <time>2026-02-20T10:04:11.000Z</time>
      </trkpt>
      <trkpt lat="43.72907" lon="6.08839">
        <ele>456.3</ele>
        <time>2026-02-20T10:04:19.000Z</time>
      </trkpt>
      <trkpt lat="43.72917" lon="6.08836">
        <ele>456.2</ele>
        <time>2026-02-20T10:04:34.000Z</time>
      </trkpt>
      <trkpt lat="43.72926" lon="6.08835">
        <ele>455.5</ele>
        <time>2026-02-20T10:04:45.000Z</time>
      </trkpt>
      <trkpt lat="43.7293" lon="6.08825">
        <ele>454.9</ele>
        <time>2026-02-20T10:05:14.000Z</time>
      </trkpt>
      <trkpt lat="43.7293" lon="6.08824">
        <ele>454.8</ele>
        <time>2026-02-20T10:05:19.000Z</time>
      </trkpt>
      <trkpt lat="43.72937" lon="6.08816">
        <ele>454.4</ele>
        <time>2026-02-20T10:05:36.000Z</time>
      </trkpt>
      <trkpt lat="43.72943" lon="6.08806">
        <ele>454.5</ele>
        <time>2026-02-20T10:05:46.000Z</time>
      </trkpt>
      <trkpt lat="43.72949" lon="6.08796">
        <ele>454.4</ele>
        <time>2026-02-20T10:05:59.000Z</time>
      </trkpt>
      <trkpt lat="43.72957" lon="6.08788">
        <ele>453.6</ele>
        <time>2026-02-20T10:06:20.000Z</time>
      </trkpt>
      <trkpt lat="43.72962" lon="6.08777">
        <ele>453.3</ele>
        <time>2026-02-20T10:06:32.000Z</time>
      </trkpt>
      <trkpt lat="43.72969" lon="6.08768">
        <ele>453.2</ele>
        <time>2026-02-20T10:06:42.000Z</time>
      </trkpt>
      <trkpt lat="43.72977" lon="6.08762">
        <ele>453</ele>
        <time>2026-02-20T10:06:54.000Z</time>
      </trkpt>
      <trkpt lat="43.72987" lon="6.08762">
        <ele>452.2</ele>
        <time>2026-02-20T10:07:10.000Z</time>
      </trkpt>
      <trkpt lat="43.72996" lon="6.08765">
        <ele>450.6</ele>
        <time>2026-02-20T10:07:24.000Z</time>
      </trkpt>
      <trkpt lat="43.73006" lon="6.08765">
        <ele>453.8</ele>
        <time>2026-02-20T10:07:58.000Z</time>
      </trkpt>
      <trkpt lat="43.73015" lon="6.08761">
        <ele>450.6</ele>
        <time>2026-02-20T10:08:06.000Z</time>
      </trkpt>
      <trkpt lat="43.73025" lon="6.08759">
        <ele>450.5</ele>
        <time>2026-02-20T10:08:16.000Z</time>
      </trkpt>
      <trkpt lat="43.73035" lon="6.08756">
        <ele>450</ele>
        <time>2026-02-20T10:08:23.000Z</time>
      </trkpt>
      <trkpt lat="43.73043" lon="6.08749">
        <ele>449.3</ele>
        <time>2026-02-20T10:08:32.000Z</time>
      </trkpt>
      <trkpt lat="43.73052" lon="6.08742">
        <ele>448.9</ele>
        <time>2026-02-20T10:08:39.000Z</time>
      </trkpt>
      <trkpt lat="43.73061" lon="6.08744">
        <ele>447.4</ele>
        <time>2026-02-20T10:09:13.000Z</time>
      </trkpt>
      <trkpt lat="43.73061" lon="6.08745">
        <ele>446.6</ele>
        <time>2026-02-20T10:09:28.000Z</time>
      </trkpt>
      <trkpt lat="43.73069" lon="6.08746">
        <ele>446.4</ele>
        <time>2026-02-20T10:10:03.000Z</time>
      </trkpt>
      <trkpt lat="43.73077" lon="6.08743">
        <ele>445.6</ele>
        <time>2026-02-20T10:10:17.000Z</time>
      </trkpt>
      <trkpt lat="43.73087" lon="6.08741">
        <ele>445.1</ele>
        <time>2026-02-20T10:10:25.000Z</time>
      </trkpt>
      <trkpt lat="43.73089" lon="6.08741">
        <ele>444.3</ele>
        <time>2026-02-20T10:10:44.000Z</time>
      </trkpt>
      <trkpt lat="43.73095" lon="6.08742">
        <ele>443.8</ele>
        <time>2026-02-20T10:11:19.000Z</time>
      </trkpt>
      <trkpt lat="43.73104" lon="6.08739">
        <ele>443.7</ele>
        <time>2026-02-20T10:11:27.000Z</time>
      </trkpt>
      <trkpt lat="43.73114" lon="6.08738">
        <ele>443.4</ele>
        <time>2026-02-20T10:11:35.000Z</time>
      </trkpt>
      <trkpt lat="43.73124" lon="6.08736">
        <ele>442.4</ele>
        <time>2026-02-20T10:11:44.000Z</time>
      </trkpt>
      <trkpt lat="43.73133" lon="6.0873">
        <ele>441.8</ele>
        <time>2026-02-20T10:11:52.000Z</time>
      </trkpt>
      <trkpt lat="43.73142" lon="6.08734">
        <ele>441</ele>
        <time>2026-02-20T10:12:02.000Z</time>
      </trkpt>
      <trkpt lat="43.73152" lon="6.08736">
        <ele>439.8</ele>
        <time>2026-02-20T10:12:10.000Z</time>
      </trkpt>
      <trkpt lat="43.73162" lon="6.08733">
        <ele>438.8</ele>
        <time>2026-02-20T10:12:17.000Z</time>
      </trkpt>
      <trkpt lat="43.7317" lon="6.0874">
        <ele>438.1</ele>
        <time>2026-02-20T10:12:26.000Z</time>
      </trkpt>
      <trkpt lat="43.73179" lon="6.08743">
        <ele>437.2</ele>
        <time>2026-02-20T10:12:43.000Z</time>
      </trkpt>
      <trkpt lat="43.73189" lon="6.08744">
        <ele>437.1</ele>
        <time>2026-02-20T10:12:50.000Z</time>
      </trkpt>
      <trkpt lat="43.73198" lon="6.08747">
        <ele>436.8</ele>
        <time>2026-02-20T10:12:57.000Z</time>
      </trkpt>
      <trkpt lat="43.73208" lon="6.0875">
        <ele>436.5</ele>
        <time>2026-02-20T10:13:05.000Z</time>
      </trkpt>
      <trkpt lat="43.73217" lon="6.08752">
        <ele>436.2</ele>
        <time>2026-02-20T10:13:15.000Z</time>
      </trkpt>
      <trkpt lat="43.73226" lon="6.08753">
        <ele>435.6</ele>
        <time>2026-02-20T10:13:25.000Z</time>
      </trkpt>
      <trkpt lat="43.73235" lon="6.0875">
        <ele>434.8</ele>
        <time>2026-02-20T10:13:34.000Z</time>
      </trkpt>
      <trkpt lat="43.73243" lon="6.08742">
        <ele>433.3</ele>
        <time>2026-02-20T10:13:44.000Z</time>
      </trkpt>
      <trkpt lat="43.73249" lon="6.08733">
        <ele>431.5</ele>
        <time>2026-02-20T10:13:53.000Z</time>
      </trkpt>
      <trkpt lat="43.73254" lon="6.08722">
        <ele>431</ele>
        <time>2026-02-20T10:14:05.000Z</time>
      </trkpt>
      <trkpt lat="43.73256" lon="6.0871">
        <ele>430.4</ele>
        <time>2026-02-20T10:14:20.000Z</time>
      </trkpt>
      <trkpt lat="43.73261" lon="6.08698">
        <ele>428</ele>
        <time>2026-02-20T10:14:31.000Z</time>
      </trkpt>
      <trkpt lat="43.73261" lon="6.08695">
        <ele>426.4</ele>
        <time>2026-02-20T10:14:50.000Z</time>
      </trkpt>
      <trkpt lat="43.73262" lon="6.08693">
        <ele>426.6</ele>
        <time>2026-02-20T10:14:56.000Z</time>
      </trkpt>
      <trkpt lat="43.73264" lon="6.0868">
        <ele>426.6</ele>
        <time>2026-02-20T10:15:16.000Z</time>
      </trkpt>
      <trkpt lat="43.73268" lon="6.08668">
        <ele>426.3</ele>
        <time>2026-02-20T10:15:24.000Z</time>
      </trkpt>
      <trkpt lat="43.7327" lon="6.08654">
        <ele>425.6</ele>
        <time>2026-02-20T10:15:34.000Z</time>
      </trkpt>
      <trkpt lat="43.7327" lon="6.08641">
        <ele>424.5</ele>
        <time>2026-02-20T10:15:45.000Z</time>
      </trkpt>
      <trkpt lat="43.73274" lon="6.08628">
        <ele>424.1</ele>
        <time>2026-02-20T10:15:57.000Z</time>
      </trkpt>
      <trkpt lat="43.73281" lon="6.08619">
        <ele>423.2</ele>
        <time>2026-02-20T10:16:10.000Z</time>
      </trkpt>
      <trkpt lat="43.73286" lon="6.08608">
        <ele>422.6</ele>
        <time>2026-02-20T10:16:21.000Z</time>
      </trkpt>
      <trkpt lat="43.73291" lon="6.08597">
        <ele>422.4</ele>
        <time>2026-02-20T10:16:31.000Z</time>
      </trkpt>
      <trkpt lat="43.73295" lon="6.08584">
        <ele>422.2</ele>
        <time>2026-02-20T10:16:41.000Z</time>
      </trkpt>
      <trkpt lat="43.73296" lon="6.0858">
        <ele>421</ele>
        <time>2026-02-20T10:17:09.000Z</time>
      </trkpt>
      <trkpt lat="43.73298" lon="6.08572">
        <ele>420.4</ele>
        <time>2026-02-20T10:17:51.000Z</time>
      </trkpt>
      <trkpt lat="43.733" lon="6.08558">
        <ele>420.5</ele>
        <time>2026-02-20T10:18:09.000Z</time>
      </trkpt>
      <trkpt lat="43.73295" lon="6.08547">
        <ele>420.6</ele>
        <time>2026-02-20T10:18:16.000Z</time>
      </trkpt>
      <trkpt lat="43.73294" lon="6.08534">
        <ele>421</ele>
        <time>2026-02-20T10:18:25.000Z</time>
      </trkpt>
      <trkpt lat="43.73298" lon="6.08523">
        <ele>422.2</ele>
        <time>2026-02-20T10:18:34.000Z</time>
      </trkpt>
      <trkpt lat="43.733" lon="6.0851">
        <ele>422.2</ele>
        <time>2026-02-20T10:18:44.000Z</time>
      </trkpt>
      <trkpt lat="43.73299" lon="6.08498">
        <ele>422</ele>
        <time>2026-02-20T10:18:55.000Z</time>
      </trkpt>
      <trkpt lat="43.733" lon="6.08484">
        <ele>421.8</ele>
        <time>2026-02-20T10:19:09.000Z</time>
      </trkpt>
      <trkpt lat="43.73298" lon="6.0848">
        <ele>420.7</ele>
        <time>2026-02-20T10:19:31.000Z</time>
      </trkpt>
      <trkpt lat="43.73298" lon="6.0848">
        <ele>420.3</ele>
        <time>2026-02-20T10:19:48.000Z</time>
      </trkpt>
      <trkpt lat="43.73298" lon="6.0848">
        <ele>420.3</ele>
        <time>2026-02-20T10:19:59.000Z</time>
      </trkpt>
      <trkpt lat="43.73303" lon="6.08477">
        <ele>420</ele>
        <time>2026-02-20T10:20:31.000Z</time>
      </trkpt>
      <trkpt lat="43.73304" lon="6.08477">
        <ele>420.1</ele>
        <time>2026-02-20T10:20:43.000Z</time>
      </trkpt>
      <trkpt lat="43.73307" lon="6.08475">
        <ele>420.7</ele>
        <time>2026-02-20T10:21:14.000Z</time>
      </trkpt>
      <trkpt lat="43.73314" lon="6.08466">
        <ele>420.2</ele>
        <time>2026-02-20T10:21:36.000Z</time>
      </trkpt>
      <trkpt lat="43.73315" lon="6.08466">
        <ele>419.5</ele>
        <time>2026-02-20T10:21:56.000Z</time>
      </trkpt>
      <trkpt lat="43.73317" lon="6.08466">
        <ele>419.3</ele>
        <time>2026-02-20T10:22:04.000Z</time>
      </trkpt>
      <trkpt lat="43.73318" lon="6.08453">
        <ele>418.3</ele>
        <time>2026-02-20T10:22:46.000Z</time>
      </trkpt>
      <trkpt lat="43.73326" lon="6.08449">
        <ele>417.1</ele>
        <time>2026-02-20T10:23:28.000Z</time>
      </trkpt>
      <trkpt lat="43.73335" lon="6.08445">
        <ele>415.6</ele>
        <time>2026-02-20T10:24:14.000Z</time>
      </trkpt>
      <trkpt lat="43.73339" lon="6.08434">
        <ele>412.7</ele>
        <time>2026-02-20T10:24:56.000Z</time>
      </trkpt>
      <trkpt lat="43.73348" lon="6.08433">
        <ele>411.2</ele>
        <time>2026-02-20T10:25:11.000Z</time>
      </trkpt>
      <trkpt lat="43.73356" lon="6.0844">
        <ele>409.6</ele>
        <time>2026-02-20T10:25:26.000Z</time>
      </trkpt>
      <trkpt lat="43.73364" lon="6.08443">
        <ele>407.6</ele>
        <time>2026-02-20T10:25:45.000Z</time>
      </trkpt>
      <trkpt lat="43.73373" lon="6.08448">
        <ele>406</ele>
        <time>2026-02-20T10:25:56.000Z</time>
      </trkpt>
      <trkpt lat="43.73382" lon="6.08451">
        <ele>405.2</ele>
        <time>2026-02-20T10:26:05.000Z</time>
      </trkpt>
      <trkpt lat="43.7339" lon="6.08458">
        <ele>404.3</ele>
        <time>2026-02-20T10:26:16.000Z</time>
      </trkpt>
      <trkpt lat="43.73399" lon="6.08458">
        <ele>402.7</ele>
        <time>2026-02-20T10:26:28.000Z</time>
      </trkpt>
      <trkpt lat="43.73409" lon="6.0846">
        <ele>402.5</ele>
        <time>2026-02-20T10:26:37.000Z</time>
      </trkpt>
      <trkpt lat="43.73418" lon="6.08456">
        <ele>402.5</ele>
        <time>2026-02-20T10:26:45.000Z</time>
      </trkpt>
      <trkpt lat="43.73428" lon="6.08453">
        <ele>402.5</ele>
        <time>2026-02-20T10:26:55.000Z</time>
      </trkpt>
      <trkpt lat="43.73437" lon="6.08455">
        <ele>402.4</ele>
        <time>2026-02-20T10:27:07.000Z</time>
      </trkpt>
      <trkpt lat="43.73446" lon="6.08459">
        <ele>402.2</ele>
        <time>2026-02-20T10:27:20.000Z</time>
      </trkpt>
      <trkpt lat="43.73455" lon="6.0846">
        <ele>401.6</ele>
        <time>2026-02-20T10:27:31.000Z</time>
      </trkpt>
      <trkpt lat="43.73465" lon="6.08459">
        <ele>401.1</ele>
        <time>2026-02-20T10:27:44.000Z</time>
      </trkpt>
      <trkpt lat="43.73473" lon="6.08455">
        <ele>400.7</ele>
        <time>2026-02-20T10:28:03.000Z</time>
      </trkpt>
      <trkpt lat="43.73482" lon="6.08451">
        <ele>400.7</ele>
        <time>2026-02-20T10:28:18.000Z</time>
      </trkpt>
      <trkpt lat="43.73483" lon="6.0845">
        <ele>400.5</ele>
        <time>2026-02-20T10:28:33.000Z</time>
      </trkpt>
      <trkpt lat="43.73486" lon="6.08451">
        <ele>400.5</ele>
        <time>2026-02-20T10:28:36.000Z</time>
      </trkpt>
      <trkpt lat="43.73488" lon="6.0845">
        <ele>400.6</ele>
        <time>2026-02-20T10:29:01.000Z</time>
      </trkpt>
      <trkpt lat="43.73491" lon="6.08446">
        <ele>400.6</ele>
        <time>2026-02-20T10:29:27.000Z</time>
      </trkpt>
      <trkpt lat="43.73489" lon="6.08445">
        <ele>400.6</ele>
        <time>2026-02-20T10:29:44.000Z</time>
      </trkpt>
      <trkpt lat="43.7349" lon="6.08437">
        <ele>400.6</ele>
        <time>2026-02-20T10:29:55.000Z</time>
      </trkpt>
      <trkpt lat="43.7349" lon="6.0843">
        <ele>401.2</ele>
        <time>2026-02-20T10:30:18.000Z</time>
      </trkpt>
      <trkpt lat="43.73483" lon="6.08427">
        <ele>401.8</ele>
        <time>2026-02-20T10:30:33.000Z</time>
      </trkpt>
      <trkpt lat="43.73482" lon="6.08414">
        <ele>402.7</ele>
        <time>2026-02-20T10:30:54.000Z</time>
      </trkpt>
      <trkpt lat="43.73484" lon="6.08402">
        <ele>403.1</ele>
        <time>2026-02-20T10:31:03.000Z</time>
      </trkpt>
      <trkpt lat="43.73491" lon="6.08393">
        <ele>402.9</ele>
        <time>2026-02-20T10:31:15.000Z</time>
      </trkpt>
      <trkpt lat="43.735" lon="6.08394">
        <ele>402.5</ele>
        <time>2026-02-20T10:31:29.000Z</time>
      </trkpt>
      <trkpt lat="43.73506" lon="6.08393">
        <ele>400.4</ele>
        <time>2026-02-20T10:31:53.000Z</time>
      </trkpt>
      <trkpt lat="43.735" lon="6.08395">
        <ele>400.9</ele>
        <time>2026-02-20T10:32:25.000Z</time>
      </trkpt>
      <trkpt lat="43.73493" lon="6.08387">
        <ele>401.4</ele>
        <time>2026-02-20T10:32:32.000Z</time>
      </trkpt>
      <trkpt lat="43.73483" lon="6.08384">
        <ele>402.5</ele>
        <time>2026-02-20T10:32:40.000Z</time>
      </trkpt>
      <trkpt lat="43.73476" lon="6.08387">
        <ele>404.1</ele>
        <time>2026-02-20T10:33:03.000Z</time>
      </trkpt>
      <trkpt lat="43.73476" lon="6.08387">
        <ele>404.1</ele>
        <time>2026-02-20T10:33:08.000Z</time>
      </trkpt>
      <trkpt lat="43.73476" lon="6.08386">
        <ele>404.9</ele>
        <time>2026-02-20T10:34:10.000Z</time>
      </trkpt>
      <trkpt lat="43.73476" lon="6.08386">
        <ele>404.6</ele>
        <time>2026-02-20T10:34:26.000Z</time>
      </trkpt>
      <trkpt lat="43.73476" lon="6.08386">
        <ele>404.4</ele>
        <time>2026-02-20T10:34:38.000Z</time>
      </trkpt>
      <trkpt lat="43.73476" lon="6.08385">
        <ele>406</ele>
        <time>2026-02-20T10:34:51.000Z</time>
      </trkpt>
      <trkpt lat="43.73476" lon="6.08386">
        <ele>405.4</ele>
        <time>2026-02-20T10:35:15.000Z</time>
      </trkpt>
      <trkpt lat="43.73476" lon="6.08385">
        <ele>405.3</ele>
        <time>2026-02-20T10:35:25.000Z</time>
      </trkpt>
      <trkpt lat="43.73476" lon="6.08385">
        <ele>405.2</ele>
        <time>2026-02-20T10:35:36.000Z</time>
      </trkpt>
      <trkpt lat="43.73476" lon="6.08385">
        <ele>406.5</ele>
        <time>2026-02-20T10:36:58.000Z</time>
      </trkpt>
      <trkpt lat="43.73476" lon="6.08385">
        <ele>406.5</ele>
        <time>2026-02-20T10:37:23.000Z</time>
      </trkpt>
      <trkpt lat="43.73476" lon="6.08385">
        <ele>407</ele>
        <time>2026-02-20T10:37:33.000Z</time>
      </trkpt>
      <trkpt lat="43.73476" lon="6.08385">
        <ele>407.1</ele>
        <time>2026-02-20T10:37:44.000Z</time>
      </trkpt>
      <trkpt lat="43.73477" lon="6.08384">
        <ele>406.9</ele>
        <time>2026-02-20T10:37:59.000Z</time>
      </trkpt>
      <trkpt lat="43.73477" lon="6.08384">
        <ele>407.2</ele>
        <time>2026-02-20T10:38:09.000Z</time>
      </trkpt>
      <trkpt lat="43.73476" lon="6.08384">
        <ele>407.1</ele>
        <time>2026-02-20T10:38:39.000Z</time>
      </trkpt>
      <trkpt lat="43.73476" lon="6.08385">
        <ele>406.9</ele>
        <time>2026-02-20T10:39:10.000Z</time>
      </trkpt>
      <trkpt lat="43.73477" lon="6.08385">
        <ele>406.9</ele>
        <time>2026-02-20T10:39:11.000Z</time>
      </trkpt>
      <trkpt lat="43.73477" lon="6.08384">
        <ele>407</ele>
        <time>2026-02-20T10:39:35.000Z</time>
      </trkpt>
      <trkpt lat="43.73477" lon="6.08383">
        <ele>408.4</ele>
        <time>2026-02-20T10:41:27.000Z</time>
      </trkpt>
      <trkpt lat="43.73477" lon="6.08383">
        <ele>408.3</ele>
        <time>2026-02-20T10:41:38.000Z</time>
      </trkpt>
      <trkpt lat="43.73477" lon="6.08383">
        <ele>409.5</ele>
        <time>2026-02-20T10:44:04.000Z</time>
      </trkpt>
      <trkpt lat="43.73477" lon="6.08383">
        <ele>409.6</ele>
        <time>2026-02-20T10:44:15.000Z</time>
      </trkpt>
      <trkpt lat="43.73476" lon="6.08385">
        <ele>409.7</ele>
        <time>2026-02-20T10:44:28.000Z</time>
      </trkpt>
      <trkpt lat="43.73476" lon="6.08385">
        <ele>408.9</ele>
        <time>2026-02-20T10:44:43.000Z</time>
      </trkpt>
      <trkpt lat="43.73476" lon="6.08385">
        <ele>409.7</ele>
        <time>2026-02-20T10:44:54.000Z</time>
      </trkpt>
      <trkpt lat="43.73476" lon="6.08385">
        <ele>409.7</ele>
        <time>2026-02-20T10:45:11.000Z</time>
      </trkpt>
      <trkpt lat="43.73477" lon="6.08383">
        <ele>411.2</ele>
        <time>2026-02-20T10:46:35.000Z</time>
      </trkpt>
      <trkpt lat="43.73481" lon="6.08396">
        <ele>410.8</ele>
        <time>2026-02-20T10:46:58.000Z</time>
      </trkpt>
      <trkpt lat="43.73478" lon="6.08386">
        <ele>411.1</ele>
        <time>2026-02-20T10:48:01.000Z</time>
      </trkpt>
      <trkpt lat="43.73478" lon="6.08386">
        <ele>410.9</ele>
        <time>2026-02-20T10:48:21.000Z</time>
      </trkpt>
      <trkpt lat="43.73479" lon="6.08386">
        <ele>411.1</ele>
        <time>2026-02-20T10:48:43.000Z</time>
      </trkpt>
      <trkpt lat="43.73478" lon="6.08386">
        <ele>411.1</ele>
        <time>2026-02-20T10:49:14.000Z</time>
      </trkpt>
      <trkpt lat="43.73478" lon="6.08386">
        <ele>411.3</ele>
        <time>2026-02-20T10:49:29.000Z</time>
      </trkpt>
      <trkpt lat="43.73478" lon="6.08387">
        <ele>411.4</ele>
        <time>2026-02-20T10:50:21.000Z</time>
      </trkpt>
      <trkpt lat="43.73478" lon="6.08387">
        <ele>411.5</ele>
        <time>2026-02-20T10:50:31.000Z</time>
      </trkpt>
      <trkpt lat="43.73478" lon="6.08387">
        <ele>411.8</ele>
        <time>2026-02-20T10:51:21.000Z</time>
      </trkpt>
      <trkpt lat="43.73478" lon="6.08387">
        <ele>412</ele>
        <time>2026-02-20T10:51:36.000Z</time>
      </trkpt>
      <trkpt lat="43.73478" lon="6.08386">
        <ele>412.7</ele>
        <time>2026-02-20T10:52:04.000Z</time>
      </trkpt>
      <trkpt lat="43.73478" lon="6.08386">
        <ele>412.8</ele>
        <time>2026-02-20T10:52:14.000Z</time>
      </trkpt>
      <trkpt lat="43.73478" lon="6.08387">
        <ele>413.6</ele>
        <time>2026-02-20T10:53:44.000Z</time>
      </trkpt>
      <trkpt lat="43.73478" lon="6.08387">
        <ele>413.6</ele>
        <time>2026-02-20T10:53:55.000Z</time>
      </trkpt>
      <trkpt lat="43.73478" lon="6.08385">
        <ele>413.8</ele>
        <time>2026-02-20T10:54:13.000Z</time>
      </trkpt>
      <trkpt lat="43.73478" lon="6.08385">
        <ele>413.9</ele>
        <time>2026-02-20T10:54:24.000Z</time>
      </trkpt>
      <trkpt lat="43.73478" lon="6.08387">
        <ele>414.8</ele>
        <time>2026-02-20T10:55:56.000Z</time>
      </trkpt>
      <trkpt lat="43.73478" lon="6.08386">
        <ele>415.5</ele>
        <time>2026-02-20T10:56:18.000Z</time>
      </trkpt>
      <trkpt lat="43.73477" lon="6.08386">
        <ele>415.5</ele>
        <time>2026-02-20T10:56:35.000Z</time>
      </trkpt>
      <trkpt lat="43.73477" lon="6.08386">
        <ele>415.7</ele>
        <time>2026-02-20T10:57:09.000Z</time>
      </trkpt>
      <trkpt lat="43.73478" lon="6.08384">
        <ele>415.9</ele>
        <time>2026-02-20T10:57:18.000Z</time>
      </trkpt>
      <trkpt lat="43.73478" lon="6.08389">
        <ele>417.8</ele>
        <time>2026-02-20T10:59:46.000Z</time>
      </trkpt>
      <trkpt lat="43.73477" lon="6.08389">
        <ele>418</ele>
        <time>2026-02-20T10:59:55.000Z</time>
      </trkpt>
      <trkpt lat="43.73477" lon="6.08389">
        <ele>417.8</ele>
        <time>2026-02-20T11:00:12.000Z</time>
      </trkpt>
      <trkpt lat="43.73478" lon="6.08388">
        <ele>417.1</ele>
        <time>2026-02-20T11:00:46.000Z</time>
      </trkpt>
      <trkpt lat="43.73478" lon="6.08389">
        <ele>416.9</ele>
        <time>2026-02-20T11:01:09.000Z</time>
      </trkpt>
      <trkpt lat="43.73483" lon="6.08387">
        <ele>416.8</ele>
        <time>2026-02-20T11:01:34.000Z</time>
      </trkpt>
      <trkpt lat="43.73483" lon="6.0839">
        <ele>416.9</ele>
        <time>2026-02-20T11:01:56.000Z</time>
      </trkpt>
      <trkpt lat="43.73483" lon="6.0839">
        <ele>416.8</ele>
        <time>2026-02-20T11:02:11.000Z</time>
      </trkpt>
      <trkpt lat="43.73483" lon="6.0839">
        <ele>416.9</ele>
        <time>2026-02-20T11:02:29.000Z</time>
      </trkpt>
      <trkpt lat="43.73483" lon="6.08389">
        <ele>417.6</ele>
        <time>2026-02-20T11:05:03.000Z</time>
      </trkpt>
      <trkpt lat="43.73483" lon="6.08389">
        <ele>417.6</ele>
        <time>2026-02-20T11:05:21.000Z</time>
      </trkpt>
      <trkpt lat="43.73482" lon="6.08389">
        <ele>417.7</ele>
        <time>2026-02-20T11:06:45.000Z</time>
      </trkpt>
      <trkpt lat="43.73483" lon="6.0839">
        <ele>417.5</ele>
        <time>2026-02-20T11:07:06.000Z</time>
      </trkpt>
      <trkpt lat="43.73482" lon="6.0839">
        <ele>417.8</ele>
        <time>2026-02-20T11:07:51.000Z</time>
      </trkpt>
      <trkpt lat="43.73482" lon="6.0839">
        <ele>417.7</ele>
        <time>2026-02-20T11:08:01.000Z</time>
      </trkpt>
      <trkpt lat="43.73479" lon="6.08388">
        <ele>418</ele>
        <time>2026-02-20T11:10:01.000Z</time>
      </trkpt>
      <trkpt lat="43.73479" lon="6.08388">
        <ele>417.8</ele>
        <time>2026-02-20T11:11:16.000Z</time>
      </trkpt>
      <trkpt lat="43.73479" lon="6.08388">
        <ele>417.8</ele>
        <time>2026-02-20T11:11:19.000Z</time>
      </trkpt>
      <trkpt lat="43.73479" lon="6.08388">
        <ele>417.8</ele>
        <time>2026-02-20T11:11:33.000Z</time>
      </trkpt>
      <trkpt lat="43.7348" lon="6.08387">
        <ele>418</ele>
        <time>2026-02-20T11:12:43.000Z</time>
      </trkpt>
      <trkpt lat="43.73474" lon="6.08378">
        <ele>418</ele>
        <time>2026-02-20T11:13:02.000Z</time>
      </trkpt>
      <trkpt lat="43.73469" lon="6.08367">
        <ele>417.8</ele>
        <time>2026-02-20T11:13:14.000Z</time>
      </trkpt>
      <trkpt lat="43.73465" lon="6.08355">
        <ele>417.4</ele>
        <time>2026-02-20T11:13:26.000Z</time>
      </trkpt>
      <trkpt lat="43.73456" lon="6.08349">
        <ele>416.9</ele>
        <time>2026-02-20T11:13:38.000Z</time>
      </trkpt>
      <trkpt lat="43.73447" lon="6.08344">
        <ele>416.3</ele>
        <time>2026-02-20T11:13:53.000Z</time>
      </trkpt>
      <trkpt lat="43.73437" lon="6.08346">
        <ele>416.2</ele>
        <time>2026-02-20T11:14:00.000Z</time>
      </trkpt>
      <trkpt lat="43.73429" lon="6.0835">
        <ele>416.2</ele>
        <time>2026-02-20T11:14:10.000Z</time>
      </trkpt>
      <trkpt lat="43.7342" lon="6.08348">
        <ele>416.4</ele>
        <time>2026-02-20T11:14:20.000Z</time>
      </trkpt>
      <trkpt lat="43.73411" lon="6.08346">
        <ele>416.5</ele>
        <time>2026-02-20T11:14:28.000Z</time>
      </trkpt>
      <trkpt lat="43.73401" lon="6.08344">
        <ele>416.5</ele>
        <time>2026-02-20T11:14:38.000Z</time>
      </trkpt>
      <trkpt lat="43.73392" lon="6.08339">
        <ele>416.5</ele>
        <time>2026-02-20T11:14:51.000Z</time>
      </trkpt>
      <trkpt lat="43.73383" lon="6.08334">
        <ele>416</ele>
        <time>2026-02-20T11:15:01.000Z</time>
      </trkpt>
      <trkpt lat="43.73374" lon="6.08331">
        <ele>415.6</ele>
        <time>2026-02-20T11:15:13.000Z</time>
      </trkpt>
      <trkpt lat="43.73364" lon="6.08328">
        <ele>415.4</ele>
        <time>2026-02-20T11:15:24.000Z</time>
      </trkpt>
      <trkpt lat="43.73357" lon="6.08319">
        <ele>415.5</ele>
        <time>2026-02-20T11:15:33.000Z</time>
      </trkpt>
      <trkpt lat="43.73348" lon="6.08316">
        <ele>415.5</ele>
        <time>2026-02-20T11:15:41.000Z</time>
      </trkpt>
      <trkpt lat="43.73339" lon="6.08314">
        <ele>415.5</ele>
        <time>2026-02-20T11:15:52.000Z</time>
      </trkpt>
      <trkpt lat="43.7333" lon="6.08317">
        <ele>415.7</ele>
        <time>2026-02-20T11:16:01.000Z</time>
      </trkpt>
      <trkpt lat="43.73323" lon="6.08326">
        <ele>415.9</ele>
        <time>2026-02-20T11:16:08.000Z</time>
      </trkpt>
      <trkpt lat="43.7332" lon="6.08339">
        <ele>416.4</ele>
        <time>2026-02-20T11:16:17.000Z</time>
      </trkpt>
      <trkpt lat="43.73311" lon="6.08342">
        <ele>418.6</ele>
        <time>2026-02-20T11:16:30.000Z</time>
      </trkpt>
      <trkpt lat="43.73302" lon="6.08347">
        <ele>419.6</ele>
        <time>2026-02-20T11:16:41.000Z</time>
      </trkpt>
      <trkpt lat="43.73294" lon="6.08352">
        <ele>420.7</ele>
        <time>2026-02-20T11:16:52.000Z</time>
      </trkpt>
      <trkpt lat="43.73284" lon="6.08353">
        <ele>421.9</ele>
        <time>2026-02-20T11:17:05.000Z</time>
      </trkpt>
      <trkpt lat="43.73274" lon="6.08351">
        <ele>423</ele>
        <time>2026-02-20T11:17:23.000Z</time>
      </trkpt>
      <trkpt lat="43.73265" lon="6.08353">
        <ele>424.2</ele>
        <time>2026-02-20T11:17:38.000Z</time>
      </trkpt>
      <trkpt lat="43.73256" lon="6.08348">
        <ele>424.5</ele>
        <time>2026-02-20T11:17:46.000Z</time>
      </trkpt>
      <trkpt lat="43.73247" lon="6.08348">
        <ele>424.7</ele>
        <time>2026-02-20T11:17:56.000Z</time>
      </trkpt>
      <trkpt lat="43.73238" lon="6.08342">
        <ele>425.1</ele>
        <time>2026-02-20T11:18:10.000Z</time>
      </trkpt>
      <trkpt lat="43.7323" lon="6.08335">
        <ele>425.3</ele>
        <time>2026-02-20T11:18:20.000Z</time>
      </trkpt>
      <trkpt lat="43.73223" lon="6.08328">
        <ele>424.9</ele>
        <time>2026-02-20T11:18:37.000Z</time>
      </trkpt>
      <trkpt lat="43.73224" lon="6.08315">
        <ele>424.3</ele>
        <time>2026-02-20T11:18:50.000Z</time>
      </trkpt>
      <trkpt lat="43.73222" lon="6.08303">
        <ele>423.2</ele>
        <time>2026-02-20T11:19:01.000Z</time>
      </trkpt>
      <trkpt lat="43.73219" lon="6.08289">
        <ele>422.4</ele>
        <time>2026-02-20T11:19:11.000Z</time>
      </trkpt>
      <trkpt lat="43.73213" lon="6.0828">
        <ele>421.8</ele>
        <time>2026-02-20T11:19:20.000Z</time>
      </trkpt>
      <trkpt lat="43.73206" lon="6.0827">
        <ele>421.5</ele>
        <time>2026-02-20T11:19:39.000Z</time>
      </trkpt>
      <trkpt lat="43.73202" lon="6.08259">
        <ele>421.2</ele>
        <time>2026-02-20T11:19:56.000Z</time>
      </trkpt>
      <trkpt lat="43.732" lon="6.08246">
        <ele>421.3</ele>
        <time>2026-02-20T11:20:04.000Z</time>
      </trkpt>
      <trkpt lat="43.73201" lon="6.08233">
        <ele>421.3</ele>
        <time>2026-02-20T11:20:13.000Z</time>
      </trkpt>
      <trkpt lat="43.73201" lon="6.0822">
        <ele>421.4</ele>
        <time>2026-02-20T11:20:23.000Z</time>
      </trkpt>
      <trkpt lat="43.73198" lon="6.08208">
        <ele>421.6</ele>
        <time>2026-02-20T11:20:31.000Z</time>
      </trkpt>
      <trkpt lat="43.73198" lon="6.08194">
        <ele>421.9</ele>
        <time>2026-02-20T11:20:40.000Z</time>
      </trkpt>
      <trkpt lat="43.73198" lon="6.08182">
        <ele>422.1</ele>
        <time>2026-02-20T11:20:50.000Z</time>
      </trkpt>
      <trkpt lat="43.73196" lon="6.08169">
        <ele>422.6</ele>
        <time>2026-02-20T11:20:59.000Z</time>
      </trkpt>
      <trkpt lat="43.73193" lon="6.08156">
        <ele>423.6</ele>
        <time>2026-02-20T11:21:08.000Z</time>
      </trkpt>
      <trkpt lat="43.73187" lon="6.08147">
        <ele>423.9</ele>
        <time>2026-02-20T11:21:18.000Z</time>
      </trkpt>
      <trkpt lat="43.73185" lon="6.08135">
        <ele>424.4</ele>
        <time>2026-02-20T11:22:04.000Z</time>
      </trkpt>
      <trkpt lat="43.7318" lon="6.08134">
        <ele>424.4</ele>
        <time>2026-02-20T11:22:14.000Z</time>
      </trkpt>
      <trkpt lat="43.73171" lon="6.0813">
        <ele>424.4</ele>
        <time>2026-02-20T11:22:21.000Z</time>
      </trkpt>
      <trkpt lat="43.73164" lon="6.0812">
        <ele>424.3</ele>
        <time>2026-02-20T11:22:33.000Z</time>
      </trkpt>
      <trkpt lat="43.7316" lon="6.08109">
        <ele>424.6</ele>
        <time>2026-02-20T11:22:43.000Z</time>
      </trkpt>
      <trkpt lat="43.73153" lon="6.08099">
        <ele>425</ele>
        <time>2026-02-20T11:22:52.000Z</time>
      </trkpt>
      <trkpt lat="43.73147" lon="6.08089">
        <ele>425.3</ele>
        <time>2026-02-20T11:23:00.000Z</time>
      </trkpt>
      <trkpt lat="43.73145" lon="6.08076">
        <ele>425.8</ele>
        <time>2026-02-20T11:23:11.000Z</time>
      </trkpt>
      <trkpt lat="43.7314" lon="6.08064">
        <ele>426.3</ele>
        <time>2026-02-20T11:23:20.000Z</time>
      </trkpt>
      <trkpt lat="43.73137" lon="6.08052">
        <ele>426.9</ele>
        <time>2026-02-20T11:23:30.000Z</time>
      </trkpt>
      <trkpt lat="43.73133" lon="6.0804">
        <ele>427.4</ele>
        <time>2026-02-20T11:23:38.000Z</time>
      </trkpt>
      <trkpt lat="43.73127" lon="6.08029">
        <ele>427.8</ele>
        <time>2026-02-20T11:23:47.000Z</time>
      </trkpt>
      <trkpt lat="43.73122" lon="6.08018">
        <ele>428.1</ele>
        <time>2026-02-20T11:23:56.000Z</time>
      </trkpt>
      <trkpt lat="43.73118" lon="6.08007">
        <ele>428.2</ele>
        <time>2026-02-20T11:24:06.000Z</time>
      </trkpt>
      <trkpt lat="43.73114" lon="6.07995">
        <ele>429</ele>
        <time>2026-02-20T11:24:14.000Z</time>
      </trkpt>
      <trkpt lat="43.73112" lon="6.07982">
        <ele>429.8</ele>
        <time>2026-02-20T11:24:25.000Z</time>
      </trkpt>
      <trkpt lat="43.73113" lon="6.0797">
        <ele>430.2</ele>
        <time>2026-02-20T11:24:36.000Z</time>
      </trkpt>
      <trkpt lat="43.7311" lon="6.07957">
        <ele>431</ele>
        <time>2026-02-20T11:24:47.000Z</time>
      </trkpt>
      <trkpt lat="43.73104" lon="6.07948">
        <ele>431.5</ele>
        <time>2026-02-20T11:24:58.000Z</time>
      </trkpt>
      <trkpt lat="43.73097" lon="6.07939">
        <ele>431.7</ele>
        <time>2026-02-20T11:25:08.000Z</time>
      </trkpt>
      <trkpt lat="43.73088" lon="6.07932">
        <ele>432</ele>
        <time>2026-02-20T11:25:18.000Z</time>
      </trkpt>
      <trkpt lat="43.73081" lon="6.07924">
        <ele>432.6</ele>
        <time>2026-02-20T11:25:32.000Z</time>
      </trkpt>
      <trkpt lat="43.73073" lon="6.07916">
        <ele>433.1</ele>
        <time>2026-02-20T11:25:43.000Z</time>
      </trkpt>
      <trkpt lat="43.73068" lon="6.07905">
        <ele>433.4</ele>
        <time>2026-02-20T11:25:53.000Z</time>
      </trkpt>
      <trkpt lat="43.73062" lon="6.07895">
        <ele>434</ele>
        <time>2026-02-20T11:26:06.000Z</time>
      </trkpt>
      <trkpt lat="43.73056" lon="6.07886">
        <ele>434.3</ele>
        <time>2026-02-20T11:26:18.000Z</time>
      </trkpt>
      <trkpt lat="43.73049" lon="6.07877">
        <ele>434.7</ele>
        <time>2026-02-20T11:26:29.000Z</time>
      </trkpt>
      <trkpt lat="43.7304" lon="6.07869">
        <ele>435.5</ele>
        <time>2026-02-20T11:26:40.000Z</time>
      </trkpt>
      <trkpt lat="43.73031" lon="6.07864">
        <ele>436.2</ele>
        <time>2026-02-20T11:26:55.000Z</time>
      </trkpt>
      <trkpt lat="43.73021" lon="6.07865">
        <ele>436.7</ele>
        <time>2026-02-20T11:27:07.000Z</time>
      </trkpt>
      <trkpt lat="43.73012" lon="6.07868">
        <ele>437.6</ele>
        <time>2026-02-20T11:27:17.000Z</time>
      </trkpt>
      <trkpt lat="43.73009" lon="6.0788">
        <ele>439.5</ele>
        <time>2026-02-20T11:27:29.000Z</time>
      </trkpt>
      <trkpt lat="43.73" lon="6.07884">
        <ele>441.4</ele>
        <time>2026-02-20T11:27:53.000Z</time>
      </trkpt>
      <trkpt lat="43.7299" lon="6.07881">
        <ele>443.4</ele>
        <time>2026-02-20T11:28:18.000Z</time>
      </trkpt>
      <trkpt lat="43.72981" lon="6.07877">
        <ele>448.3</ele>
        <time>2026-02-20T11:28:54.000Z</time>
      </trkpt>
      <trkpt lat="43.72973" lon="6.07872">
        <ele>450</ele>
        <time>2026-02-20T11:29:09.000Z</time>
      </trkpt>
      <trkpt lat="43.72962" lon="6.07872">
        <ele>450.7</ele>
        <time>2026-02-20T11:29:18.000Z</time>
      </trkpt>
      <trkpt lat="43.72955" lon="6.07863">
        <ele>451.1</ele>
        <time>2026-02-20T11:29:30.000Z</time>
      </trkpt>
      <trkpt lat="43.72954" lon="6.07851">
        <ele>451.7</ele>
        <time>2026-02-20T11:29:40.000Z</time>
      </trkpt>
      <trkpt lat="43.7295" lon="6.07853">
        <ele>452.9</ele>
        <time>2026-02-20T11:30:09.000Z</time>
      </trkpt>
      <trkpt lat="43.72949" lon="6.07853">
        <ele>453</ele>
        <time>2026-02-20T11:30:41.000Z</time>
      </trkpt>
      <trkpt lat="43.72948" lon="6.07849">
        <ele>453</ele>
        <time>2026-02-20T11:30:51.000Z</time>
      </trkpt>
      <trkpt lat="43.72949" lon="6.07852">
        <ele>452.9</ele>
        <time>2026-02-20T11:30:59.000Z</time>
      </trkpt>
      <trkpt lat="43.72951" lon="6.07837">
        <ele>453</ele>
        <time>2026-02-20T11:31:29.000Z</time>
      </trkpt>
      <trkpt lat="43.72952" lon="6.07823">
        <ele>453</ele>
        <time>2026-02-20T11:31:38.000Z</time>
      </trkpt>
      <trkpt lat="43.72952" lon="6.07811">
        <ele>453</ele>
        <time>2026-02-20T11:31:49.000Z</time>
      </trkpt>
      <trkpt lat="43.72947" lon="6.078">
        <ele>453</ele>
        <time>2026-02-20T11:32:01.000Z</time>
      </trkpt>
      <trkpt lat="43.72945" lon="6.07787">
        <ele>452.9</ele>
        <time>2026-02-20T11:32:15.000Z</time>
      </trkpt>
      <trkpt lat="43.72944" lon="6.07775">
        <ele>453</ele>
        <time>2026-02-20T11:32:41.000Z</time>
      </trkpt>
      <trkpt lat="43.72945" lon="6.07761">
        <ele>453</ele>
        <time>2026-02-20T11:32:49.000Z</time>
      </trkpt>
      <trkpt lat="43.72943" lon="6.07749">
        <ele>452.9</ele>
        <time>2026-02-20T11:32:57.000Z</time>
      </trkpt>
      <trkpt lat="43.72936" lon="6.07739">
        <ele>452.8</ele>
        <time>2026-02-20T11:33:05.000Z</time>
      </trkpt>
      <trkpt lat="43.72927" lon="6.07734">
        <ele>452.6</ele>
        <time>2026-02-20T11:33:14.000Z</time>
      </trkpt>
      <trkpt lat="43.7292" lon="6.07725">
        <ele>452.6</ele>
        <time>2026-02-20T11:33:26.000Z</time>
      </trkpt>
      <trkpt lat="43.72912" lon="6.07717">
        <ele>452.5</ele>
        <time>2026-02-20T11:33:36.000Z</time>
      </trkpt>
      <trkpt lat="43.72904" lon="6.0771">
        <ele>452.6</ele>
        <time>2026-02-20T11:33:48.000Z</time>
      </trkpt>
      <trkpt lat="43.72899" lon="6.077">
        <ele>453.1</ele>
        <time>2026-02-20T11:34:03.000Z</time>
      </trkpt>
      <trkpt lat="43.72896" lon="6.07688">
        <ele>454.6</ele>
        <time>2026-02-20T11:34:20.000Z</time>
      </trkpt>
      <trkpt lat="43.72896" lon="6.07675">
        <ele>455</ele>
        <time>2026-02-20T11:34:35.000Z</time>
      </trkpt>
      <trkpt lat="43.72894" lon="6.07662">
        <ele>455.3</ele>
        <time>2026-02-20T11:34:44.000Z</time>
      </trkpt>
      <trkpt lat="43.72894" lon="6.07649">
        <ele>455.7</ele>
        <time>2026-02-20T11:34:57.000Z</time>
      </trkpt>
      <trkpt lat="43.72889" lon="6.07636">
        <ele>456</ele>
        <time>2026-02-20T11:35:06.000Z</time>
      </trkpt>
      <trkpt lat="43.7288" lon="6.0763">
        <ele>456.5</ele>
        <time>2026-02-20T11:35:13.000Z</time>
      </trkpt>
      <trkpt lat="43.72871" lon="6.07623">
        <ele>457</ele>
        <time>2026-02-20T11:35:22.000Z</time>
      </trkpt>
      <trkpt lat="43.72864" lon="6.07614">
        <ele>457.6</ele>
        <time>2026-02-20T11:35:31.000Z</time>
      </trkpt>
      <trkpt lat="43.72861" lon="6.07602">
        <ele>458.6</ele>
        <time>2026-02-20T11:35:49.000Z</time>
      </trkpt>
      <trkpt lat="43.72859" lon="6.07589">
        <ele>459.3</ele>
        <time>2026-02-20T11:36:01.000Z</time>
      </trkpt>
      <trkpt lat="43.72855" lon="6.07577">
        <ele>459.8</ele>
        <time>2026-02-20T11:36:15.000Z</time>
      </trkpt>
      <trkpt lat="43.72852" lon="6.07565">
        <ele>460.4</ele>
        <time>2026-02-20T11:36:24.000Z</time>
      </trkpt>
      <trkpt lat="43.72848" lon="6.07554">
        <ele>461.5</ele>
        <time>2026-02-20T11:36:34.000Z</time>
      </trkpt>
      <trkpt lat="43.72842" lon="6.07543">
        <ele>462.4</ele>
        <time>2026-02-20T11:36:49.000Z</time>
      </trkpt>
      <trkpt lat="43.72844" lon="6.07531">
        <ele>462.6</ele>
        <time>2026-02-20T11:37:01.000Z</time>
      </trkpt>
      <trkpt lat="43.72843" lon="6.07518">
        <ele>463</ele>
        <time>2026-02-20T11:37:10.000Z</time>
      </trkpt>
      <trkpt lat="43.72842" lon="6.07506">
        <ele>463.5</ele>
        <time>2026-02-20T11:37:20.000Z</time>
      </trkpt>
      <trkpt lat="43.7284" lon="6.07493">
        <ele>464.1</ele>
        <time>2026-02-20T11:37:30.000Z</time>
      </trkpt>
      <trkpt lat="43.72837" lon="6.0748">
        <ele>464.3</ele>
        <time>2026-02-20T11:37:39.000Z</time>
      </trkpt>
      <trkpt lat="43.72835" lon="6.07467">
        <ele>465</ele>
        <time>2026-02-20T11:37:51.000Z</time>
      </trkpt>
      <trkpt lat="43.7283" lon="6.07455">
        <ele>465.5</ele>
        <time>2026-02-20T11:38:01.000Z</time>
      </trkpt>
      <trkpt lat="43.72827" lon="6.07443">
        <ele>466.2</ele>
        <time>2026-02-20T11:38:13.000Z</time>
      </trkpt>
      <trkpt lat="43.72822" lon="6.07432">
        <ele>466.9</ele>
        <time>2026-02-20T11:38:25.000Z</time>
      </trkpt>
      <trkpt lat="43.7282" lon="6.07418">
        <ele>468</ele>
        <time>2026-02-20T11:38:39.000Z</time>
      </trkpt>
      <trkpt lat="43.72818" lon="6.07405">
        <ele>468.4</ele>
        <time>2026-02-20T11:38:49.000Z</time>
      </trkpt>
      <trkpt lat="43.72818" lon="6.07393">
        <ele>469</ele>
        <time>2026-02-20T11:39:00.000Z</time>
      </trkpt>
      <trkpt lat="43.72824" lon="6.07383">
        <ele>470</ele>
        <time>2026-02-20T11:39:12.000Z</time>
      </trkpt>
      <trkpt lat="43.72828" lon="6.0737">
        <ele>471.5</ele>
        <time>2026-02-20T11:39:37.000Z</time>
      </trkpt>
      <trkpt lat="43.72834" lon="6.07361">
        <ele>471.9</ele>
        <time>2026-02-20T11:39:50.000Z</time>
      </trkpt>
      <trkpt lat="43.7284" lon="6.07351">
        <ele>472.4</ele>
        <time>2026-02-20T11:40:02.000Z</time>
      </trkpt>
      <trkpt lat="43.72842" lon="6.07339">
        <ele>473.1</ele>
        <time>2026-02-20T11:40:14.000Z</time>
      </trkpt>
      <trkpt lat="43.72846" lon="6.07326">
        <ele>474.2</ele>
        <time>2026-02-20T11:40:25.000Z</time>
      </trkpt>
      <trkpt lat="43.72846" lon="6.07313">
        <ele>475.2</ele>
        <time>2026-02-20T11:40:33.000Z</time>
      </trkpt>
      <trkpt lat="43.72844" lon="6.073">
        <ele>476.8</ele>
        <time>2026-02-20T11:40:44.000Z</time>
      </trkpt>
      <trkpt lat="43.72841" lon="6.07288">
        <ele>477.5</ele>
        <time>2026-02-20T11:40:55.000Z</time>
      </trkpt>
      <trkpt lat="43.72842" lon="6.07274">
        <ele>478.3</ele>
        <time>2026-02-20T11:41:04.000Z</time>
      </trkpt>
      <trkpt lat="43.72847" lon="6.07262">
        <ele>478.6</ele>
        <time>2026-02-20T11:41:14.000Z</time>
      </trkpt>
      <trkpt lat="43.72851" lon="6.0725">
        <ele>478.9</ele>
        <time>2026-02-20T11:41:23.000Z</time>
      </trkpt>
      <trkpt lat="43.72858" lon="6.07241">
        <ele>479.1</ele>
        <time>2026-02-20T11:41:34.000Z</time>
      </trkpt>
      <trkpt lat="43.72866" lon="6.07233">
        <ele>479.5</ele>
        <time>2026-02-20T11:41:45.000Z</time>
      </trkpt>
      <trkpt lat="43.72871" lon="6.07223">
        <ele>480.4</ele>
        <time>2026-02-20T11:41:55.000Z</time>
      </trkpt>
      <trkpt lat="43.7288" lon="6.07216">
        <ele>481</ele>
        <time>2026-02-20T11:42:09.000Z</time>
      </trkpt>
      <trkpt lat="43.72887" lon="6.07207">
        <ele>481.5</ele>
        <time>2026-02-20T11:42:16.000Z</time>
      </trkpt>
      <trkpt lat="43.72895" lon="6.07201">
        <ele>481.7</ele>
        <time>2026-02-20T11:42:23.000Z</time>
      </trkpt>
      <trkpt lat="43.72902" lon="6.07194">
        <ele>482.1</ele>
        <time>2026-02-20T11:42:33.000Z</time>
      </trkpt>
      <trkpt lat="43.72905" lon="6.07182">
        <ele>482.2</ele>
        <time>2026-02-20T11:42:42.000Z</time>
      </trkpt>
      <trkpt lat="43.72913" lon="6.07172">
        <ele>482.2</ele>
        <time>2026-02-20T11:42:55.000Z</time>
      </trkpt>
      <trkpt lat="43.72922" lon="6.07168">
        <ele>482.3</ele>
        <time>2026-02-20T11:43:07.000Z</time>
      </trkpt>
      <trkpt lat="43.7293" lon="6.07162">
        <ele>482.6</ele>
        <time>2026-02-20T11:43:26.000Z</time>
      </trkpt>
      <trkpt lat="43.72939" lon="6.07159">
        <ele>482.9</ele>
        <time>2026-02-20T11:43:38.000Z</time>
      </trkpt>
      <trkpt lat="43.72946" lon="6.07167">
        <ele>483.2</ele>
        <time>2026-02-20T11:43:48.000Z</time>
      </trkpt>
      <trkpt lat="43.72954" lon="6.07174">
        <ele>483.4</ele>
        <time>2026-02-20T11:43:57.000Z</time>
      </trkpt>
      <trkpt lat="43.72961" lon="6.07182">
        <ele>483.7</ele>
        <time>2026-02-20T11:44:07.000Z</time>
      </trkpt>
      <trkpt lat="43.7296" lon="6.07169">
        <ele>483.9</ele>
        <time>2026-02-20T11:44:19.000Z</time>
      </trkpt>
      <trkpt lat="43.72955" lon="6.07159">
        <ele>483.9</ele>
        <time>2026-02-20T11:44:30.000Z</time>
      </trkpt>
      <trkpt lat="43.72947" lon="6.07152">
        <ele>483.8</ele>
        <time>2026-02-20T11:44:44.000Z</time>
      </trkpt>
      <trkpt lat="43.72947" lon="6.07152">
        <ele>483.1</ele>
        <time>2026-02-20T11:45:01.000Z</time>
      </trkpt>
      <trkpt lat="43.72946" lon="6.07157">
        <ele>483.9</ele>
        <time>2026-02-20T11:46:19.000Z</time>
      </trkpt>
      <trkpt lat="43.72942" lon="6.07158">
        <ele>482.9</ele>
        <time>2026-02-20T11:46:52.000Z</time>
      </trkpt>
      <trkpt lat="43.72942" lon="6.07151">
        <ele>483.5</ele>
        <time>2026-02-20T11:48:01.000Z</time>
      </trkpt>
      <trkpt lat="43.72938" lon="6.0714">
        <ele>483.6</ele>
        <time>2026-02-20T11:48:17.000Z</time>
      </trkpt>
      <trkpt lat="43.7293" lon="6.07135">
        <ele>483.9</ele>
        <time>2026-02-20T11:48:28.000Z</time>
      </trkpt>
      <trkpt lat="43.7292" lon="6.07131">
        <ele>484.2</ele>
        <time>2026-02-20T11:48:39.000Z</time>
      </trkpt>
      <trkpt lat="43.7291" lon="6.07127">
        <ele>484.5</ele>
        <time>2026-02-20T11:48:47.000Z</time>
      </trkpt>
      <trkpt lat="43.72901" lon="6.07123">
        <ele>484.7</ele>
        <time>2026-02-20T11:48:55.000Z</time>
      </trkpt>
      <trkpt lat="43.72891" lon="6.07121">
        <ele>485.2</ele>
        <time>2026-02-20T11:49:11.000Z</time>
      </trkpt>
      <trkpt lat="43.7289" lon="6.07122">
        <ele>485.4</ele>
        <time>2026-02-20T11:49:24.000Z</time>
      </trkpt>
      <trkpt lat="43.72889" lon="6.07122">
        <ele>485.5</ele>
        <time>2026-02-20T11:49:27.000Z</time>
      </trkpt>
      <trkpt lat="43.7288" lon="6.07119">
        <ele>485.4</ele>
        <time>2026-02-20T11:49:37.000Z</time>
      </trkpt>
      <trkpt lat="43.7287" lon="6.07115">
        <ele>485.3</ele>
        <time>2026-02-20T11:49:46.000Z</time>
      </trkpt>
      <trkpt lat="43.72861" lon="6.07115">
        <ele>484.8</ele>
        <time>2026-02-20T11:50:00.000Z</time>
      </trkpt>
      <trkpt lat="43.72851" lon="6.0711">
        <ele>484.4</ele>
        <time>2026-02-20T11:50:12.000Z</time>
      </trkpt>
      <trkpt lat="43.72842" lon="6.07106">
        <ele>484.1</ele>
        <time>2026-02-20T11:50:22.000Z</time>
      </trkpt>
      <trkpt lat="43.72838" lon="6.07104">
        <ele>483.6</ele>
        <time>2026-02-20T11:50:45.000Z</time>
      </trkpt>
      <trkpt lat="43.72838" lon="6.07104">
        <ele>483.6</ele>
        <time>2026-02-20T11:50:47.000Z</time>
      </trkpt>
      <trkpt lat="43.72829" lon="6.07101">
        <ele>483.7</ele>
        <time>2026-02-20T11:51:06.000Z</time>
      </trkpt>
      <trkpt lat="43.72819" lon="6.07097">
        <ele>483.5</ele>
        <time>2026-02-20T11:51:16.000Z</time>
      </trkpt>
      <trkpt lat="43.72809" lon="6.07094">
        <ele>483.4</ele>
        <time>2026-02-20T11:51:24.000Z</time>
      </trkpt>
      <trkpt lat="43.728" lon="6.07089">
        <ele>483.2</ele>
        <time>2026-02-20T11:51:33.000Z</time>
      </trkpt>
      <trkpt lat="43.72791" lon="6.07086">
        <ele>482.5</ele>
        <time>2026-02-20T11:51:58.000Z</time>
      </trkpt>
      <trkpt lat="43.72783" lon="6.0708">
        <ele>482.3</ele>
        <time>2026-02-20T11:52:08.000Z</time>
      </trkpt>
      <trkpt lat="43.72774" lon="6.07075">
        <ele>482.1</ele>
        <time>2026-02-20T11:52:17.000Z</time>
      </trkpt>
      <trkpt lat="43.72765" lon="6.07073">
        <ele>481.7</ele>
        <time>2026-02-20T11:52:26.000Z</time>
      </trkpt>
      <trkpt lat="43.72755" lon="6.0707">
        <ele>481.3</ele>
        <time>2026-02-20T11:52:36.000Z</time>
      </trkpt>
      <trkpt lat="43.72747" lon="6.07066">
        <ele>480.8</ele>
        <time>2026-02-20T11:52:46.000Z</time>
      </trkpt>
      <trkpt lat="43.72738" lon="6.07063">
        <ele>480.3</ele>
        <time>2026-02-20T11:52:55.000Z</time>
      </trkpt>
      <trkpt lat="43.72735" lon="6.07065">
        <ele>479.5</ele>
        <time>2026-02-20T11:53:11.000Z</time>
      </trkpt>
      <trkpt lat="43.72736" lon="6.07066">
        <ele>479.4</ele>
        <time>2026-02-20T11:53:24.000Z</time>
      </trkpt>
      <trkpt lat="43.72736" lon="6.07066">
        <ele>479.3</ele>
        <time>2026-02-20T11:53:35.000Z</time>
      </trkpt>
      <trkpt lat="43.72736" lon="6.07067">
        <ele>479.4</ele>
        <time>2026-02-20T11:55:41.000Z</time>
      </trkpt>
      <trkpt lat="43.72734" lon="6.07066">
        <ele>479.4</ele>
        <time>2026-02-20T11:56:06.000Z</time>
      </trkpt>
      <trkpt lat="43.72731" lon="6.07064">
        <ele>479.4</ele>
        <time>2026-02-20T11:56:39.000Z</time>
      </trkpt>
      <trkpt lat="43.72721" lon="6.07061">
        <ele>479.4</ele>
        <time>2026-02-20T11:56:48.000Z</time>
      </trkpt>
      <trkpt lat="43.72712" lon="6.07059">
        <ele>479.4</ele>
        <time>2026-02-20T11:56:56.000Z</time>
      </trkpt>
      <trkpt lat="43.72703" lon="6.07058">
        <ele>479.3</ele>
        <time>2026-02-20T11:57:07.000Z</time>
      </trkpt>
      <trkpt lat="43.72694" lon="6.07054">
        <ele>479.2</ele>
        <time>2026-02-20T11:57:15.000Z</time>
      </trkpt>
      <trkpt lat="43.72685" lon="6.0705">
        <ele>479.1</ele>
        <time>2026-02-20T11:57:24.000Z</time>
      </trkpt>
      <trkpt lat="43.72676" lon="6.07047">
        <ele>479.1</ele>
        <time>2026-02-20T11:57:34.000Z</time>
      </trkpt>
      <trkpt lat="43.72667" lon="6.07045">
        <ele>479</ele>
        <time>2026-02-20T11:57:42.000Z</time>
      </trkpt>
      <trkpt lat="43.72658" lon="6.07043">
        <ele>479</ele>
        <time>2026-02-20T11:57:51.000Z</time>
      </trkpt>
      <trkpt lat="43.72648" lon="6.07042">
        <ele>479</ele>
        <time>2026-02-20T11:57:58.000Z</time>
      </trkpt>
      <trkpt lat="43.72639" lon="6.07038">
        <ele>479</ele>
        <time>2026-02-20T11:58:46.000Z</time>
      </trkpt>
      <trkpt lat="43.7263" lon="6.07033">
        <ele>479.4</ele>
        <time>2026-02-20T11:58:54.000Z</time>
      </trkpt>
      <trkpt lat="43.72622" lon="6.07027">
        <ele>479.4</ele>
        <time>2026-02-20T11:59:01.000Z</time>
      </trkpt>
      <trkpt lat="43.72614" lon="6.07019">
        <ele>479.5</ele>
        <time>2026-02-20T11:59:10.000Z</time>
      </trkpt>
      <trkpt lat="43.7261" lon="6.07008">
        <ele>480.1</ele>
        <time>2026-02-20T11:59:20.000Z</time>
      </trkpt>
      <trkpt lat="43.72609" lon="6.07007">
        <ele>481</ele>
        <time>2026-02-20T11:59:36.000Z</time>
      </trkpt>
      <trkpt lat="43.72606" lon="6.07003">
        <ele>481.4</ele>
        <time>2026-02-20T12:00:02.000Z</time>
      </trkpt>
      <trkpt lat="43.72597" lon="6.06997">
        <ele>481.4</ele>
        <time>2026-02-20T12:00:11.000Z</time>
      </trkpt>
      <trkpt lat="43.72588" lon="6.0699">
        <ele>481.4</ele>
        <time>2026-02-20T12:00:18.000Z</time>
      </trkpt>
      <trkpt lat="43.7258" lon="6.06984">
        <ele>481.4</ele>
        <time>2026-02-20T12:00:25.000Z</time>
      </trkpt>
      <trkpt lat="43.72573" lon="6.06975">
        <ele>481.3</ele>
        <time>2026-02-20T12:00:36.000Z</time>
      </trkpt>
      <trkpt lat="43.72565" lon="6.06967">
        <ele>481.3</ele>
        <time>2026-02-20T12:00:42.000Z</time>
      </trkpt>
      <trkpt lat="43.72558" lon="6.06957">
        <ele>481.2</ele>
        <time>2026-02-20T12:00:49.000Z</time>
      </trkpt>
      <trkpt lat="43.72551" lon="6.06946">
        <ele>481.2</ele>
        <time>2026-02-20T12:00:56.000Z</time>
      </trkpt>
      <trkpt lat="43.72545" lon="6.06937">
        <ele>481.2</ele>
        <time>2026-02-20T12:01:02.000Z</time>
      </trkpt>
      <trkpt lat="43.72541" lon="6.06926">
        <ele>481.3</ele>
        <time>2026-02-20T12:01:14.000Z</time>
      </trkpt>
      <trkpt lat="43.72536" lon="6.06916">
        <ele>481.2</ele>
        <time>2026-02-20T12:01:31.000Z</time>
      </trkpt>
      <trkpt lat="43.72529" lon="6.06905">
        <ele>481.2</ele>
        <time>2026-02-20T12:01:39.000Z</time>
      </trkpt>
      <trkpt lat="43.72524" lon="6.06894">
        <ele>481.2</ele>
        <time>2026-02-20T12:01:47.000Z</time>
      </trkpt>
      <trkpt lat="43.72516" lon="6.06888">
        <ele>481.1</ele>
        <time>2026-02-20T12:01:55.000Z</time>
      </trkpt>
      <trkpt lat="43.72507" lon="6.06883">
        <ele>481</ele>
        <time>2026-02-20T12:02:06.000Z</time>
      </trkpt>
      <trkpt lat="43.72499" lon="6.0689">
        <ele>480.7</ele>
        <time>2026-02-20T12:02:13.000Z</time>
      </trkpt>
      <trkpt lat="43.72489" lon="6.06892">
        <ele>480.1</ele>
        <time>2026-02-20T12:02:21.000Z</time>
      </trkpt>
      <trkpt lat="43.7248" lon="6.06895">
        <ele>479.4</ele>
        <time>2026-02-20T12:02:29.000Z</time>
      </trkpt>
      <trkpt lat="43.72472" lon="6.06887">
        <ele>478.4</ele>
        <time>2026-02-20T12:02:43.000Z</time>
      </trkpt>
      <trkpt lat="43.72466" lon="6.06878">
        <ele>477.8</ele>
        <time>2026-02-20T12:03:03.000Z</time>
      </trkpt>
      <trkpt lat="43.72475" lon="6.06877">
        <ele>477.7</ele>
        <time>2026-02-20T12:03:23.000Z</time>
      </trkpt>
      <trkpt lat="43.72477" lon="6.06865">
        <ele>478.4</ele>
        <time>2026-02-20T12:03:29.000Z</time>
      </trkpt>
      <trkpt lat="43.7247" lon="6.06856">
        <ele>479.5</ele>
        <time>2026-02-20T12:03:39.000Z</time>
      </trkpt>
      <trkpt lat="43.7246" lon="6.06854">
        <ele>479.8</ele>
        <time>2026-02-20T12:03:51.000Z</time>
      </trkpt>
      <trkpt lat="43.7245" lon="6.06853">
        <ele>478.9</ele>
        <time>2026-02-20T12:04:03.000Z</time>
      </trkpt>
      <trkpt lat="43.72446" lon="6.06842">
        <ele>477.9</ele>
        <time>2026-02-20T12:04:18.000Z</time>
      </trkpt>
      <trkpt lat="43.72446" lon="6.06829">
        <ele>477.9</ele>
        <time>2026-02-20T12:04:31.000Z</time>
      </trkpt>
      <trkpt lat="43.72441" lon="6.06818">
        <ele>478</ele>
        <time>2026-02-20T12:04:39.000Z</time>
      </trkpt>
      <trkpt lat="43.72432" lon="6.06815">
        <ele>478</ele>
        <time>2026-02-20T12:05:03.000Z</time>
      </trkpt>
      <trkpt lat="43.72425" lon="6.06823">
        <ele>477.8</ele>
        <time>2026-02-20T12:05:10.000Z</time>
      </trkpt>
      <trkpt lat="43.72422" lon="6.06835">
        <ele>477.2</ele>
        <time>2026-02-20T12:05:19.000Z</time>
      </trkpt>
      <trkpt lat="43.72415" lon="6.06846">
        <ele>476</ele>
        <time>2026-02-20T12:05:27.000Z</time>
      </trkpt>
      <trkpt lat="43.72409" lon="6.06855">
        <ele>474.9</ele>
        <time>2026-02-20T12:05:37.000Z</time>
      </trkpt>
      <trkpt lat="43.72401" lon="6.06862">
        <ele>472.8</ele>
        <time>2026-02-20T12:05:56.000Z</time>
      </trkpt>
      <trkpt lat="43.724" lon="6.06875">
        <ele>472.2</ele>
        <time>2026-02-20T12:06:15.000Z</time>
      </trkpt>
      <trkpt lat="43.72401" lon="6.06876">
        <ele>472.4</ele>
        <time>2026-02-20T12:06:31.000Z</time>
      </trkpt>
      <trkpt lat="43.72401" lon="6.06876">
        <ele>472.4</ele>
        <time>2026-02-20T12:06:32.000Z</time>
      </trkpt>
      <trkpt lat="43.724" lon="6.06872">
        <ele>472.4</ele>
        <time>2026-02-20T12:07:01.000Z</time>
      </trkpt>
      <trkpt lat="43.724" lon="6.06869">
        <ele>472.4</ele>
        <time>2026-02-20T12:07:04.000Z</time>
      </trkpt>
      <trkpt lat="43.72406" lon="6.06864">
        <ele>471.8</ele>
        <time>2026-02-20T12:07:26.000Z</time>
      </trkpt>
      <trkpt lat="43.72407" lon="6.06864">
        <ele>472.2</ele>
        <time>2026-02-20T12:07:40.000Z</time>
      </trkpt>
      <trkpt lat="43.72407" lon="6.06863">
        <ele>472.5</ele>
        <time>2026-02-20T12:07:59.000Z</time>
      </trkpt>
      <trkpt lat="43.72407" lon="6.0686">
        <ele>472.4</ele>
        <time>2026-02-20T12:08:08.000Z</time>
      </trkpt>
      <trkpt lat="43.72406" lon="6.06865">
        <ele>472.5</ele>
        <time>2026-02-20T12:08:23.000Z</time>
      </trkpt>
      <trkpt lat="43.72406" lon="6.06865">
        <ele>472.5</ele>
        <time>2026-02-20T12:08:31.000Z</time>
      </trkpt>
      <trkpt lat="43.72406" lon="6.06865">
        <ele>472.5</ele>
        <time>2026-02-20T12:08:43.000Z</time>
      </trkpt>
      <trkpt lat="43.72405" lon="6.06864">
        <ele>472.5</ele>
        <time>2026-02-20T12:08:48.000Z</time>
      </trkpt>
      <trkpt lat="43.72402" lon="6.06869">
        <ele>472.3</ele>
        <time>2026-02-20T12:09:16.000Z</time>
      </trkpt>
      <trkpt lat="43.72402" lon="6.06859">
        <ele>473.7</ele>
        <time>2026-02-20T12:10:11.000Z</time>
      </trkpt>
      <trkpt lat="43.72397" lon="6.06847">
        <ele>473.7</ele>
        <time>2026-02-20T12:10:21.000Z</time>
      </trkpt>
      <trkpt lat="43.72393" lon="6.06835">
        <ele>474.2</ele>
        <time>2026-02-20T12:10:34.000Z</time>
      </trkpt>
      <trkpt lat="43.72394" lon="6.06822">
        <ele>476.7</ele>
        <time>2026-02-20T12:11:12.000Z</time>
      </trkpt>
      <trkpt lat="43.724" lon="6.06812">
        <ele>477.5</ele>
        <time>2026-02-20T12:11:26.000Z</time>
      </trkpt>
      <trkpt lat="43.72401" lon="6.06799">
        <ele>478.2</ele>
        <time>2026-02-20T12:11:36.000Z</time>
      </trkpt>
      <trkpt lat="43.72404" lon="6.06787">
        <ele>479</ele>
        <time>2026-02-20T12:11:47.000Z</time>
      </trkpt>
      <trkpt lat="43.72407" lon="6.06775">
        <ele>479.9</ele>
        <time>2026-02-20T12:11:59.000Z</time>
      </trkpt>
      <trkpt lat="43.72405" lon="6.06762">
        <ele>480.6</ele>
        <time>2026-02-20T12:12:15.000Z</time>
      </trkpt>
      <trkpt lat="43.72397" lon="6.06755">
        <ele>481.9</ele>
        <time>2026-02-20T12:12:26.000Z</time>
      </trkpt>
      <trkpt lat="43.7239" lon="6.06746">
        <ele>482.2</ele>
        <time>2026-02-20T12:12:36.000Z</time>
      </trkpt>
      <trkpt lat="43.72384" lon="6.06736">
        <ele>482.5</ele>
        <time>2026-02-20T12:12:46.000Z</time>
      </trkpt>
      <trkpt lat="43.72375" lon="6.0673">
        <ele>482.6</ele>
        <time>2026-02-20T12:12:55.000Z</time>
      </trkpt>
      <trkpt lat="43.72368" lon="6.06721">
        <ele>482.9</ele>
        <time>2026-02-20T12:13:05.000Z</time>
      </trkpt>
      <trkpt lat="43.7236" lon="6.06715">
        <ele>483.2</ele>
        <time>2026-02-20T12:13:15.000Z</time>
      </trkpt>
      <trkpt lat="43.72352" lon="6.06708">
        <ele>483.2</ele>
        <time>2026-02-20T12:13:24.000Z</time>
      </trkpt>
      <trkpt lat="43.72343" lon="6.06702">
        <ele>483.5</ele>
        <time>2026-02-20T12:13:37.000Z</time>
      </trkpt>
      <trkpt lat="43.72335" lon="6.06696">
        <ele>483.9</ele>
        <time>2026-02-20T12:13:46.000Z</time>
      </trkpt>
      <trkpt lat="43.72327" lon="6.06689">
        <ele>484.3</ele>
        <time>2026-02-20T12:13:56.000Z</time>
      </trkpt>
      <trkpt lat="43.72319" lon="6.06683">
        <ele>484.4</ele>
        <time>2026-02-20T12:14:05.000Z</time>
      </trkpt>
      <trkpt lat="43.72312" lon="6.06675">
        <ele>484.5</ele>
        <time>2026-02-20T12:14:15.000Z</time>
      </trkpt>
      <trkpt lat="43.72303" lon="6.0667">
        <ele>484.8</ele>
        <time>2026-02-20T12:14:26.000Z</time>
      </trkpt>
      <trkpt lat="43.72297" lon="6.06659">
        <ele>485.1</ele>
        <time>2026-02-20T12:14:35.000Z</time>
      </trkpt>
      <trkpt lat="43.7229" lon="6.06651">
        <ele>485.2</ele>
        <time>2026-02-20T12:14:48.000Z</time>
      </trkpt>
      <trkpt lat="43.72282" lon="6.06643">
        <ele>485.4</ele>
        <time>2026-02-20T12:14:57.000Z</time>
      </trkpt>
      <trkpt lat="43.72274" lon="6.06637">
        <ele>485.5</ele>
        <time>2026-02-20T12:15:14.000Z</time>
      </trkpt>
      <trkpt lat="43.72265" lon="6.06643">
        <ele>485.5</ele>
        <time>2026-02-20T12:15:21.000Z</time>
      </trkpt>
      <trkpt lat="43.72256" lon="6.06647">
        <ele>485.3</ele>
        <time>2026-02-20T12:15:29.000Z</time>
      </trkpt>
      <trkpt lat="43.72248" lon="6.06655">
        <ele>485.2</ele>
        <time>2026-02-20T12:15:43.000Z</time>
      </trkpt>
      <trkpt lat="43.72239" lon="6.06661">
        <ele>484.9</ele>
        <time>2026-02-20T12:15:54.000Z</time>
      </trkpt>
      <trkpt lat="43.7223" lon="6.06668">
        <ele>484.5</ele>
        <time>2026-02-20T12:16:04.000Z</time>
      </trkpt>
      <trkpt lat="43.72221" lon="6.06673">
        <ele>484</ele>
        <time>2026-02-20T12:16:13.000Z</time>
      </trkpt>
      <trkpt lat="43.72222" lon="6.06674">
        <ele>483.4</ele>
        <time>2026-02-20T12:16:31.000Z</time>
      </trkpt>
      <trkpt lat="43.72218" lon="6.06674">
        <ele>483.3</ele>
        <time>2026-02-20T12:17:25.000Z</time>
      </trkpt>
      <trkpt lat="43.72209" lon="6.06678">
        <ele>483.2</ele>
        <time>2026-02-20T12:17:32.000Z</time>
      </trkpt>
      <trkpt lat="43.72202" lon="6.06686">
        <ele>483.1</ele>
        <time>2026-02-20T12:17:39.000Z</time>
      </trkpt>
      <trkpt lat="43.72193" lon="6.06691">
        <ele>482.6</ele>
        <time>2026-02-20T12:17:47.000Z</time>
      </trkpt>
      <trkpt lat="43.72185" lon="6.06698">
        <ele>481.7</ele>
        <time>2026-02-20T12:17:54.000Z</time>
      </trkpt>
      <trkpt lat="43.72176" lon="6.06703">
        <ele>480.6</ele>
        <time>2026-02-20T12:18:00.000Z</time>
      </trkpt>
      <trkpt lat="43.72167" lon="6.06704">
        <ele>479.7</ele>
        <time>2026-02-20T12:18:06.000Z</time>
      </trkpt>
      <trkpt lat="43.72159" lon="6.06708">
        <ele>478.7</ele>
        <time>2026-02-20T12:18:13.000Z</time>
      </trkpt>
      <trkpt lat="43.72151" lon="6.06713">
        <ele>477.3</ele>
        <time>2026-02-20T12:18:22.000Z</time>
      </trkpt>
      <trkpt lat="43.72142" lon="6.06715">
        <ele>476.6</ele>
        <time>2026-02-20T12:18:29.000Z</time>
      </trkpt>
      <trkpt lat="43.72133" lon="6.06723">
        <ele>475.6</ele>
        <time>2026-02-20T12:18:37.000Z</time>
      </trkpt>
      <trkpt lat="43.72125" lon="6.06729">
        <ele>474.4</ele>
        <time>2026-02-20T12:18:43.000Z</time>
      </trkpt>
      <trkpt lat="43.72117" lon="6.06735">
        <ele>472.9</ele>
        <time>2026-02-20T12:18:51.000Z</time>
      </trkpt>
      <trkpt lat="43.72108" lon="6.06741">
        <ele>471.4</ele>
        <time>2026-02-20T12:18:59.000Z</time>
      </trkpt>
      <trkpt lat="43.72101" lon="6.06748">
        <ele>470.5</ele>
        <time>2026-02-20T12:19:13.000Z</time>
      </trkpt>
      <trkpt lat="43.72096" lon="6.06759">
        <ele>470</ele>
        <time>2026-02-20T12:19:36.000Z</time>
      </trkpt>
      <trkpt lat="43.72089" lon="6.06768">
        <ele>469.4</ele>
        <time>2026-02-20T12:19:44.000Z</time>
      </trkpt>
      <trkpt lat="43.7208" lon="6.0677">
        <ele>469</ele>
        <time>2026-02-20T12:19:55.000Z</time>
      </trkpt>
      <trkpt lat="43.72071" lon="6.06771">
        <ele>468.6</ele>
        <time>2026-02-20T12:20:02.000Z</time>
      </trkpt>
      <trkpt lat="43.72062" lon="6.06769">
        <ele>468.8</ele>
        <time>2026-02-20T12:20:13.000Z</time>
      </trkpt>
      <trkpt lat="43.72052" lon="6.06772">
        <ele>468.7</ele>
        <time>2026-02-20T12:20:20.000Z</time>
      </trkpt>
      <trkpt lat="43.72043" lon="6.06771">
        <ele>468.6</ele>
        <time>2026-02-20T12:20:29.000Z</time>
      </trkpt>
      <trkpt lat="43.72033" lon="6.06772">
        <ele>468.4</ele>
        <time>2026-02-20T12:20:38.000Z</time>
      </trkpt>
      <trkpt lat="43.72023" lon="6.06772">
        <ele>468.2</ele>
        <time>2026-02-20T12:20:47.000Z</time>
      </trkpt>
      <trkpt lat="43.72014" lon="6.06772">
        <ele>468.1</ele>
        <time>2026-02-20T12:20:57.000Z</time>
      </trkpt>
      <trkpt lat="43.72004" lon="6.06776">
        <ele>468.1</ele>
        <time>2026-02-20T12:21:05.000Z</time>
      </trkpt>
      <trkpt lat="43.71995" lon="6.06777">
        <ele>468</ele>
        <time>2026-02-20T12:21:15.000Z</time>
      </trkpt>
      <trkpt lat="43.71985" lon="6.06778">
        <ele>467.9</ele>
        <time>2026-02-20T12:21:24.000Z</time>
      </trkpt>
      <trkpt lat="43.71976" lon="6.06782">
        <ele>467.9</ele>
        <time>2026-02-20T12:21:33.000Z</time>
      </trkpt>
      <trkpt lat="43.71967" lon="6.06782">
        <ele>467.6</ele>
        <time>2026-02-20T12:21:42.000Z</time>
      </trkpt>
      <trkpt lat="43.71958" lon="6.06784">
        <ele>467.6</ele>
        <time>2026-02-20T12:21:51.000Z</time>
      </trkpt>
      <trkpt lat="43.71948" lon="6.06787">
        <ele>467.5</ele>
        <time>2026-02-20T12:22:01.000Z</time>
      </trkpt>
      <trkpt lat="43.71939" lon="6.06791">
        <ele>467.6</ele>
        <time>2026-02-20T12:22:10.000Z</time>
      </trkpt>
      <trkpt lat="43.71929" lon="6.06792">
        <ele>467.7</ele>
        <time>2026-02-20T12:22:18.000Z</time>
      </trkpt>
      <trkpt lat="43.7192" lon="6.06797">
        <ele>467.8</ele>
        <time>2026-02-20T12:22:27.000Z</time>
      </trkpt>
      <trkpt lat="43.71911" lon="6.06801">
        <ele>467.9</ele>
        <time>2026-02-20T12:22:36.000Z</time>
      </trkpt>
      <trkpt lat="43.71903" lon="6.06808">
        <ele>467.8</ele>
        <time>2026-02-20T12:22:47.000Z</time>
      </trkpt>
      <trkpt lat="43.71893" lon="6.06809">
        <ele>467.8</ele>
        <time>2026-02-20T12:22:55.000Z</time>
      </trkpt>
      <trkpt lat="43.71884" lon="6.06812">
        <ele>467.8</ele>
        <time>2026-02-20T12:23:04.000Z</time>
      </trkpt>
      <trkpt lat="43.71875" lon="6.06815">
        <ele>467.6</ele>
        <time>2026-02-20T12:23:13.000Z</time>
      </trkpt>
      <trkpt lat="43.71865" lon="6.06818">
        <ele>467.4</ele>
        <time>2026-02-20T12:23:26.000Z</time>
      </trkpt>
      <trkpt lat="43.71856" lon="6.06823">
        <ele>467.4</ele>
        <time>2026-02-20T12:23:36.000Z</time>
      </trkpt>
      <trkpt lat="43.71847" lon="6.06827">
        <ele>467.6</ele>
        <time>2026-02-20T12:23:51.000Z</time>
      </trkpt>
      <trkpt lat="43.71845" lon="6.06828">
        <ele>467.9</ele>
        <time>2026-02-20T12:24:08.000Z</time>
      </trkpt>
      <trkpt lat="43.7184" lon="6.06829">
        <ele>467.9</ele>
        <time>2026-02-20T12:24:16.000Z</time>
      </trkpt>
      <trkpt lat="43.71831" lon="6.0683">
        <ele>468.1</ele>
        <time>2026-02-20T12:24:38.000Z</time>
      </trkpt>
      <trkpt lat="43.71822" lon="6.06832">
        <ele>468.1</ele>
        <time>2026-02-20T12:24:47.000Z</time>
      </trkpt>
      <trkpt lat="43.71813" lon="6.06838">
        <ele>468.2</ele>
        <time>2026-02-20T12:24:56.000Z</time>
      </trkpt>
      <trkpt lat="43.71804" lon="6.06841">
        <ele>468.2</ele>
        <time>2026-02-20T12:25:05.000Z</time>
      </trkpt>
      <trkpt lat="43.71795" lon="6.06843">
        <ele>468.1</ele>
        <time>2026-02-20T12:25:13.000Z</time>
      </trkpt>
      <trkpt lat="43.71786" lon="6.06845">
        <ele>468</ele>
        <time>2026-02-20T12:25:22.000Z</time>
      </trkpt>
      <trkpt lat="43.71776" lon="6.06845">
        <ele>468</ele>
        <time>2026-02-20T12:25:31.000Z</time>
      </trkpt>
      <trkpt lat="43.71767" lon="6.06842">
        <ele>468.1</ele>
        <time>2026-02-20T12:25:41.000Z</time>
      </trkpt>
      <trkpt lat="43.71757" lon="6.06842">
        <ele>468</ele>
        <time>2026-02-20T12:25:50.000Z</time>
      </trkpt>
      <trkpt lat="43.71749" lon="6.06837">
        <ele>468</ele>
        <time>2026-02-20T12:25:59.000Z</time>
      </trkpt>
      <trkpt lat="43.7174" lon="6.06839">
        <ele>468</ele>
        <time>2026-02-20T12:26:07.000Z</time>
      </trkpt>
      <trkpt lat="43.71731" lon="6.06838">
        <ele>468.5</ele>
        <time>2026-02-20T12:26:23.000Z</time>
      </trkpt>
      <trkpt lat="43.71721" lon="6.06837">
        <ele>469.5</ele>
        <time>2026-02-20T12:26:35.000Z</time>
      </trkpt>
      <trkpt lat="43.71711" lon="6.06836">
        <ele>471.3</ele>
        <time>2026-02-20T12:26:49.000Z</time>
      </trkpt>
      <trkpt lat="43.71703" lon="6.06832">
        <ele>472.2</ele>
        <time>2026-02-20T12:27:02.000Z</time>
      </trkpt>
      <trkpt lat="43.71693" lon="6.06829">
        <ele>473.4</ele>
        <time>2026-02-20T12:27:15.000Z</time>
      </trkpt>
      <trkpt lat="43.71685" lon="6.06824">
        <ele>474</ele>
        <time>2026-02-20T12:27:26.000Z</time>
      </trkpt>
      <trkpt lat="43.71675" lon="6.06824">
        <ele>475.4</ele>
        <time>2026-02-20T12:27:37.000Z</time>
      </trkpt>
      <trkpt lat="43.71665" lon="6.06825">
        <ele>476.7</ele>
        <time>2026-02-20T12:27:48.000Z</time>
      </trkpt>
      <trkpt lat="43.71656" lon="6.06823">
        <ele>477.5</ele>
        <time>2026-02-20T12:28:00.000Z</time>
      </trkpt>
      <trkpt lat="43.71647" lon="6.06822">
        <ele>478.4</ele>
        <time>2026-02-20T12:28:11.000Z</time>
      </trkpt>
      <trkpt lat="43.71637" lon="6.0682">
        <ele>479.1</ele>
        <time>2026-02-20T12:28:22.000Z</time>
      </trkpt>
      <trkpt lat="43.71629" lon="6.06816">
        <ele>479.6</ele>
        <time>2026-02-20T12:28:32.000Z</time>
      </trkpt>
      <trkpt lat="43.7162" lon="6.06813">
        <ele>480.1</ele>
        <time>2026-02-20T12:28:43.000Z</time>
      </trkpt>
      <trkpt lat="43.71612" lon="6.06807">
        <ele>480.7</ele>
        <time>2026-02-20T12:28:52.000Z</time>
      </trkpt>
      <trkpt lat="43.71603" lon="6.06804">
        <ele>481.3</ele>
        <time>2026-02-20T12:29:04.000Z</time>
      </trkpt>
      <trkpt lat="43.71594" lon="6.06802">
        <ele>481.7</ele>
        <time>2026-02-20T12:29:15.000Z</time>
      </trkpt>
      <trkpt lat="43.71585" lon="6.06804">
        <ele>481.8</ele>
        <time>2026-02-20T12:29:25.000Z</time>
      </trkpt>
      <trkpt lat="43.71576" lon="6.06803">
        <ele>482</ele>
        <time>2026-02-20T12:29:35.000Z</time>
      </trkpt>
      <trkpt lat="43.71567" lon="6.06797">
        <ele>482.4</ele>
        <time>2026-02-20T12:29:44.000Z</time>
      </trkpt>
      <trkpt lat="43.71558" lon="6.06793">
        <ele>483</ele>
        <time>2026-02-20T12:29:55.000Z</time>
      </trkpt>
      <trkpt lat="43.71549" lon="6.06789">
        <ele>483.3</ele>
        <time>2026-02-20T12:30:07.000Z</time>
      </trkpt>
      <trkpt lat="43.7154" lon="6.06784">
        <ele>483.7</ele>
        <time>2026-02-20T12:30:16.000Z</time>
      </trkpt>
      <trkpt lat="43.7153" lon="6.06782">
        <ele>484</ele>
        <time>2026-02-20T12:30:26.000Z</time>
      </trkpt>
      <trkpt lat="43.71522" lon="6.06777">
        <ele>484.3</ele>
        <time>2026-02-20T12:30:36.000Z</time>
      </trkpt>
      <trkpt lat="43.71513" lon="6.06771">
        <ele>484.5</ele>
        <time>2026-02-20T12:30:48.000Z</time>
      </trkpt>
      <trkpt lat="43.71505" lon="6.06764">
        <ele>484.5</ele>
        <time>2026-02-20T12:30:56.000Z</time>
      </trkpt>
      <trkpt lat="43.71495" lon="6.06762">
        <ele>484.3</ele>
        <time>2026-02-20T12:31:07.000Z</time>
      </trkpt>
      <trkpt lat="43.71486" lon="6.06761">
        <ele>484.2</ele>
        <time>2026-02-20T12:31:16.000Z</time>
      </trkpt>
      <trkpt lat="43.71477" lon="6.06755">
        <ele>484.3</ele>
        <time>2026-02-20T12:31:26.000Z</time>
      </trkpt>
      <trkpt lat="43.71469" lon="6.06751">
        <ele>484.3</ele>
        <time>2026-02-20T12:31:35.000Z</time>
      </trkpt>
      <trkpt lat="43.7146" lon="6.06744">
        <ele>484.2</ele>
        <time>2026-02-20T12:31:48.000Z</time>
      </trkpt>
      <trkpt lat="43.71453" lon="6.06736">
        <ele>484.1</ele>
        <time>2026-02-20T12:32:02.000Z</time>
      </trkpt>
      <trkpt lat="43.71443" lon="6.0673">
        <ele>484</ele>
        <time>2026-02-20T12:32:14.000Z</time>
      </trkpt>
      <trkpt lat="43.71434" lon="6.06726">
        <ele>484</ele>
        <time>2026-02-20T12:32:22.000Z</time>
      </trkpt>
      <trkpt lat="43.71424" lon="6.06726">
        <ele>484.1</ele>
        <time>2026-02-20T12:32:32.000Z</time>
      </trkpt>
      <trkpt lat="43.71415" lon="6.06726">
        <ele>484.1</ele>
        <time>2026-02-20T12:32:40.000Z</time>
      </trkpt>
      <trkpt lat="43.71405" lon="6.06726">
        <ele>484.1</ele>
        <time>2026-02-20T12:32:49.000Z</time>
      </trkpt>
      <trkpt lat="43.71396" lon="6.06726">
        <ele>484.2</ele>
        <time>2026-02-20T12:32:58.000Z</time>
      </trkpt>
      <trkpt lat="43.71386" lon="6.06725">
        <ele>484.4</ele>
        <time>2026-02-20T12:33:07.000Z</time>
      </trkpt>
      <trkpt lat="43.71376" lon="6.06726">
        <ele>484.7</ele>
        <time>2026-02-20T12:33:17.000Z</time>
      </trkpt>
      <trkpt lat="43.7137" lon="6.06736">
        <ele>485.1</ele>
        <time>2026-02-20T12:33:26.000Z</time>
      </trkpt>
      <trkpt lat="43.71368" lon="6.06749">
        <ele>485.5</ele>
        <time>2026-02-20T12:33:36.000Z</time>
      </trkpt>
      <trkpt lat="43.71359" lon="6.06756">
        <ele>485.6</ele>
        <time>2026-02-20T12:33:46.000Z</time>
      </trkpt>
      <trkpt lat="43.71354" lon="6.06767">
        <ele>485.7</ele>
        <time>2026-02-20T12:33:54.000Z</time>
      </trkpt>
      <trkpt lat="43.71346" lon="6.06776">
        <ele>486</ele>
        <time>2026-02-20T12:34:04.000Z</time>
      </trkpt>
      <trkpt lat="43.71345" lon="6.06788">
        <ele>486.4</ele>
        <time>2026-02-20T12:34:13.000Z</time>
      </trkpt>
      <trkpt lat="43.71341" lon="6.068">
        <ele>487.1</ele>
        <time>2026-02-20T12:34:23.000Z</time>
      </trkpt>
      <trkpt lat="43.71336" lon="6.0681">
        <ele>488</ele>
        <time>2026-02-20T12:34:34.000Z</time>
      </trkpt>
      <trkpt lat="43.71332" lon="6.06821">
        <ele>489.1</ele>
        <time>2026-02-20T12:34:47.000Z</time>
      </trkpt>
      <trkpt lat="43.71327" lon="6.06833">
        <ele>490.8</ele>
        <time>2026-02-20T12:35:03.000Z</time>
      </trkpt>
      <trkpt lat="43.71322" lon="6.06844">
        <ele>492.5</ele>
        <time>2026-02-20T12:35:17.000Z</time>
      </trkpt>
      <trkpt lat="43.71316" lon="6.06854">
        <ele>493.9</ele>
        <time>2026-02-20T12:35:29.000Z</time>
      </trkpt>
      <trkpt lat="43.71312" lon="6.06866">
        <ele>494.5</ele>
        <time>2026-02-20T12:35:37.000Z</time>
      </trkpt>
      <trkpt lat="43.71308" lon="6.06877">
        <ele>495.5</ele>
        <time>2026-02-20T12:35:50.000Z</time>
      </trkpt>
      <trkpt lat="43.71303" lon="6.06889">
        <ele>496.6</ele>
        <time>2026-02-20T12:36:02.000Z</time>
      </trkpt>
      <trkpt lat="43.71299" lon="6.069">
        <ele>497</ele>
        <time>2026-02-20T12:36:13.000Z</time>
      </trkpt>
      <trkpt lat="43.71298" lon="6.06913">
        <ele>497.2</ele>
        <time>2026-02-20T12:36:30.000Z</time>
      </trkpt>
      <trkpt lat="43.713" lon="6.06926">
        <ele>496.9</ele>
        <time>2026-02-20T12:36:36.000Z</time>
      </trkpt>
      <trkpt lat="43.71298" lon="6.06931">
        <ele>496.7</ele>
        <time>2026-02-20T12:36:51.000Z</time>
      </trkpt>
      <trkpt lat="43.71303" lon="6.06915">
        <ele>497.5</ele>
        <time>2026-02-20T12:37:52.000Z</time>
      </trkpt>
      <trkpt lat="43.71301" lon="6.06932">
        <ele>497.5</ele>
        <time>2026-02-20T12:38:16.000Z</time>
      </trkpt>
      <trkpt lat="43.71303" lon="6.06948">
        <ele>497.5</ele>
        <time>2026-02-20T12:38:27.000Z</time>
      </trkpt>
      <trkpt lat="43.71305" lon="6.06936">
        <ele>497.2</ele>
        <time>2026-02-20T12:38:36.000Z</time>
      </trkpt>
      <trkpt lat="43.71302" lon="6.06923">
        <ele>497.3</ele>
        <time>2026-02-20T12:38:42.000Z</time>
      </trkpt>
      <trkpt lat="43.71299" lon="6.06911">
        <ele>497.8</ele>
        <time>2026-02-20T12:39:28.000Z</time>
      </trkpt>
      <trkpt lat="43.713" lon="6.06897">
        <ele>497.4</ele>
        <time>2026-02-20T12:39:40.000Z</time>
      </trkpt>
      <trkpt lat="43.71292" lon="6.06903">
        <ele>496.6</ele>
        <time>2026-02-20T12:39:57.000Z</time>
      </trkpt>
      <trkpt lat="43.71288" lon="6.06916">
        <ele>496.6</ele>
        <time>2026-02-20T12:40:04.000Z</time>
      </trkpt>
      <trkpt lat="43.71282" lon="6.06927">
        <ele>496.1</ele>
        <time>2026-02-20T12:40:14.000Z</time>
      </trkpt>
      <trkpt lat="43.7128" lon="6.0694">
        <ele>495.2</ele>
        <time>2026-02-20T12:40:22.000Z</time>
      </trkpt>
      <trkpt lat="43.71274" lon="6.0695">
        <ele>493.3</ele>
        <time>2026-02-20T12:40:32.000Z</time>
      </trkpt>
      <trkpt lat="43.71274" lon="6.06964">
        <ele>491.9</ele>
        <time>2026-02-20T12:40:40.000Z</time>
      </trkpt>
      <trkpt lat="43.71268" lon="6.06975">
        <ele>490.4</ele>
        <time>2026-02-20T12:40:48.000Z</time>
      </trkpt>
      <trkpt lat="43.71264" lon="6.06986">
        <ele>489.3</ele>
        <time>2026-02-20T12:40:57.000Z</time>
      </trkpt>
      <trkpt lat="43.71257" lon="6.06996">
        <ele>487.5</ele>
        <time>2026-02-20T12:41:07.000Z</time>
      </trkpt>
      <trkpt lat="43.71254" lon="6.07007">
        <ele>486.1</ele>
        <time>2026-02-20T12:41:15.000Z</time>
      </trkpt>
      <trkpt lat="43.71248" lon="6.07019">
        <ele>485.5</ele>
        <time>2026-02-20T12:41:24.000Z</time>
      </trkpt>
      <trkpt lat="43.71241" lon="6.07028">
        <ele>484.4</ele>
        <time>2026-02-20T12:41:34.000Z</time>
      </trkpt>
      <trkpt lat="43.71235" lon="6.07038">
        <ele>483.5</ele>
        <time>2026-02-20T12:41:43.000Z</time>
      </trkpt>
      <trkpt lat="43.71227" lon="6.07046">
        <ele>483</ele>
        <time>2026-02-20T12:41:54.000Z</time>
      </trkpt>
      <trkpt lat="43.71221" lon="6.07057">
        <ele>482.2</ele>
        <time>2026-02-20T12:42:05.000Z</time>
      </trkpt>
      <trkpt lat="43.71214" lon="6.07067">
        <ele>481.4</ele>
        <time>2026-02-20T12:42:15.000Z</time>
      </trkpt>
      <trkpt lat="43.71206" lon="6.07074">
        <ele>480.8</ele>
        <time>2026-02-20T12:42:26.000Z</time>
      </trkpt>
      <trkpt lat="43.71197" lon="6.07079">
        <ele>480.5</ele>
        <time>2026-02-20T12:42:35.000Z</time>
      </trkpt>
      <trkpt lat="43.71189" lon="6.07086">
        <ele>479.8</ele>
        <time>2026-02-20T12:42:46.000Z</time>
      </trkpt>
      <trkpt lat="43.7118" lon="6.07087">
        <ele>479.3</ele>
        <time>2026-02-20T12:42:56.000Z</time>
      </trkpt>
      <trkpt lat="43.71176" lon="6.071">
        <ele>479</ele>
        <time>2026-02-20T12:43:06.000Z</time>
      </trkpt>
      <trkpt lat="43.7118" lon="6.07112">
        <ele>479</ele>
        <time>2026-02-20T12:43:14.000Z</time>
      </trkpt>
      <trkpt lat="43.71182" lon="6.07125">
        <ele>479.4</ele>
        <time>2026-02-20T12:43:24.000Z</time>
      </trkpt>
      <trkpt lat="43.71186" lon="6.07136">
        <ele>479.8</ele>
        <time>2026-02-20T12:43:30.000Z</time>
      </trkpt>
      <trkpt lat="43.71187" lon="6.0715">
        <ele>480.3</ele>
        <time>2026-02-20T12:43:41.000Z</time>
      </trkpt>
      <trkpt lat="43.71191" lon="6.07162">
        <ele>481</ele>
        <time>2026-02-20T12:43:52.000Z</time>
      </trkpt>
      <trkpt lat="43.71191" lon="6.07175">
        <ele>481.9</ele>
        <time>2026-02-20T12:44:04.000Z</time>
      </trkpt>
      <trkpt lat="43.71194" lon="6.07188">
        <ele>482.7</ele>
        <time>2026-02-20T12:44:15.000Z</time>
      </trkpt>
      <trkpt lat="43.71198" lon="6.07199">
        <ele>483</ele>
        <time>2026-02-20T12:44:22.000Z</time>
      </trkpt>
      <trkpt lat="43.71202" lon="6.07211">
        <ele>484</ele>
        <time>2026-02-20T12:44:35.000Z</time>
      </trkpt>
      <trkpt lat="43.71206" lon="6.07223">
        <ele>484.6</ele>
        <time>2026-02-20T12:44:48.000Z</time>
      </trkpt>
      <trkpt lat="43.712" lon="6.07234">
        <ele>485.3</ele>
        <time>2026-02-20T12:45:07.000Z</time>
      </trkpt>
      <trkpt lat="43.71191" lon="6.07235">
        <ele>485</ele>
        <time>2026-02-20T12:45:22.000Z</time>
      </trkpt>
      <trkpt lat="43.71182" lon="6.07238">
        <ele>484.2</ele>
        <time>2026-02-20T12:45:34.000Z</time>
      </trkpt>
      <trkpt lat="43.71173" lon="6.07241">
        <ele>483.5</ele>
        <time>2026-02-20T12:45:46.000Z</time>
      </trkpt>
      <trkpt lat="43.71164" lon="6.07242">
        <ele>483.2</ele>
        <time>2026-02-20T12:45:56.000Z</time>
      </trkpt>
      <trkpt lat="43.71155" lon="6.07249">
        <ele>482.5</ele>
        <time>2026-02-20T12:46:06.000Z</time>
      </trkpt>
      <trkpt lat="43.71147" lon="6.07253">
        <ele>481.8</ele>
        <time>2026-02-20T12:46:14.000Z</time>
      </trkpt>
      <trkpt lat="43.71139" lon="6.07259">
        <ele>480.6</ele>
        <time>2026-02-20T12:46:24.000Z</time>
      </trkpt>
      <trkpt lat="43.71131" lon="6.07266">
        <ele>480.7</ele>
        <time>2026-02-20T12:46:33.000Z</time>
      </trkpt>
      <trkpt lat="43.71121" lon="6.07269">
        <ele>480.2</ele>
        <time>2026-02-20T12:46:43.000Z</time>
      </trkpt>
      <trkpt lat="43.71113" lon="6.07275">
        <ele>480</ele>
        <time>2026-02-20T12:46:53.000Z</time>
      </trkpt>
      <trkpt lat="43.71104" lon="6.07279">
        <ele>479.4</ele>
        <time>2026-02-20T12:47:03.000Z</time>
      </trkpt>
      <trkpt lat="43.71096" lon="6.07288">
        <ele>478.7</ele>
        <time>2026-02-20T12:47:13.000Z</time>
      </trkpt>
      <trkpt lat="43.7109" lon="6.07297">
        <ele>478.5</ele>
        <time>2026-02-20T12:47:20.000Z</time>
      </trkpt>
      <trkpt lat="43.71087" lon="6.07309">
        <ele>478.4</ele>
        <time>2026-02-20T12:47:28.000Z</time>
      </trkpt>
      <trkpt lat="43.7109" lon="6.07321">
        <ele>478.2</ele>
        <time>2026-02-20T12:47:45.000Z</time>
      </trkpt>
      <trkpt lat="43.71091" lon="6.07335">
        <ele>477.8</ele>
        <time>2026-02-20T12:47:55.000Z</time>
      </trkpt>
      <trkpt lat="43.71096" lon="6.07346">
        <ele>477.1</ele>
        <time>2026-02-20T12:48:05.000Z</time>
      </trkpt>
      <trkpt lat="43.71104" lon="6.07355">
        <ele>476.5</ele>
        <time>2026-02-20T12:48:22.000Z</time>
      </trkpt>
      <trkpt lat="43.71107" lon="6.07367">
        <ele>475.8</ele>
        <time>2026-02-20T12:48:47.000Z</time>
      </trkpt>
      <trkpt lat="43.71114" lon="6.07377">
        <ele>475.5</ele>
        <time>2026-02-20T12:49:06.000Z</time>
      </trkpt>
      <trkpt lat="43.71117" lon="6.07389">
        <ele>475.4</ele>
        <time>2026-02-20T12:49:20.000Z</time>
      </trkpt>
      <trkpt lat="43.71123" lon="6.07398">
        <ele>475.6</ele>
        <time>2026-02-20T12:49:45.000Z</time>
      </trkpt>
      <trkpt lat="43.71123" lon="6.07411">
        <ele>475.5</ele>
        <time>2026-02-20T12:49:58.000Z</time>
      </trkpt>
      <trkpt lat="43.71129" lon="6.0742">
        <ele>475.1</ele>
        <time>2026-02-20T12:50:11.000Z</time>
      </trkpt>
      <trkpt lat="43.71132" lon="6.07432">
        <ele>474.6</ele>
        <time>2026-02-20T12:50:28.000Z</time>
      </trkpt>
      <trkpt lat="43.71137" lon="6.07443">
        <ele>473.8</ele>
        <time>2026-02-20T12:50:59.000Z</time>
      </trkpt>
      <trkpt lat="43.7114" lon="6.07455">
        <ele>472.3</ele>
        <time>2026-02-20T12:51:37.000Z</time>
      </trkpt>
      <trkpt lat="43.71143" lon="6.07467">
        <ele>470</ele>
        <time>2026-02-20T12:51:58.000Z</time>
      </trkpt>
      <trkpt lat="43.71151" lon="6.07476">
        <ele>468.7</ele>
        <time>2026-02-20T12:52:24.000Z</time>
      </trkpt>
      <trkpt lat="43.71156" lon="6.07485">
        <ele>466.5</ele>
        <time>2026-02-20T12:53:12.000Z</time>
      </trkpt>
      <trkpt lat="43.71156" lon="6.07486">
        <ele>466.3</ele>
        <time>2026-02-20T12:53:17.000Z</time>
      </trkpt>
      <trkpt lat="43.71155" lon="6.07491">
        <ele>464.9</ele>
        <time>2026-02-20T12:53:51.000Z</time>
      </trkpt>
      <trkpt lat="43.71154" lon="6.07491">
        <ele>463.5</ele>
        <time>2026-02-20T12:55:51.000Z</time>
      </trkpt>
      <trkpt lat="43.71151" lon="6.07503">
        <ele>462.8</ele>
        <time>2026-02-20T12:56:04.000Z</time>
      </trkpt>
      <trkpt lat="43.71149" lon="6.07516">
        <ele>460</ele>
        <time>2026-02-20T12:56:18.000Z</time>
      </trkpt>
      <trkpt lat="43.7115" lon="6.07524">
        <ele>457</ele>
        <time>2026-02-20T12:56:41.000Z</time>
      </trkpt>
      <trkpt lat="43.71151" lon="6.07525">
        <ele>457</ele>
        <time>2026-02-20T12:56:44.000Z</time>
      </trkpt>
      <trkpt lat="43.71158" lon="6.07531">
        <ele>456.8</ele>
        <time>2026-02-20T12:56:55.000Z</time>
      </trkpt>
      <trkpt lat="43.71167" lon="6.07535">
        <ele>456.2</ele>
        <time>2026-02-20T12:57:05.000Z</time>
      </trkpt>
      <trkpt lat="43.71176" lon="6.0754">
        <ele>456</ele>
        <time>2026-02-20T12:57:17.000Z</time>
      </trkpt>
      <trkpt lat="43.71182" lon="6.07551">
        <ele>454.6</ele>
        <time>2026-02-20T12:57:35.000Z</time>
      </trkpt>
      <trkpt lat="43.71185" lon="6.07562">
        <ele>451.8</ele>
        <time>2026-02-20T12:57:55.000Z</time>
      </trkpt>
      <trkpt lat="43.71189" lon="6.07574">
        <ele>452.8</ele>
        <time>2026-02-20T12:58:17.000Z</time>
      </trkpt>
      <trkpt lat="43.71196" lon="6.07583">
        <ele>448</ele>
        <time>2026-02-20T12:58:31.000Z</time>
      </trkpt>
      <trkpt lat="43.712" lon="6.07595">
        <ele>446.5</ele>
        <time>2026-02-20T12:58:45.000Z</time>
      </trkpt>
      <trkpt lat="43.71203" lon="6.07607">
        <ele>445.1</ele>
        <time>2026-02-20T12:58:57.000Z</time>
      </trkpt>
      <trkpt lat="43.71209" lon="6.07616">
        <ele>443.8</ele>
        <time>2026-02-20T12:59:08.000Z</time>
      </trkpt>
      <trkpt lat="43.71216" lon="6.07626">
        <ele>442.5</ele>
        <time>2026-02-20T12:59:20.000Z</time>
      </trkpt>
      <trkpt lat="43.71221" lon="6.07636">
        <ele>440</ele>
        <time>2026-02-20T12:59:41.000Z</time>
      </trkpt>
      <trkpt lat="43.71227" lon="6.07646">
        <ele>437.8</ele>
        <time>2026-02-20T13:00:12.000Z</time>
      </trkpt>
      <trkpt lat="43.71231" lon="6.07658">
        <ele>435.9</ele>
        <time>2026-02-20T13:00:31.000Z</time>
      </trkpt>
      <trkpt lat="43.71236" lon="6.07669">
        <ele>434.3</ele>
        <time>2026-02-20T13:00:46.000Z</time>
      </trkpt>
      <trkpt lat="43.7124" lon="6.0768">
        <ele>433.2</ele>
        <time>2026-02-20T13:00:59.000Z</time>
      </trkpt>
      <trkpt lat="43.71245" lon="6.0769">
        <ele>431.4</ele>
        <time>2026-02-20T13:01:13.000Z</time>
      </trkpt>
      <trkpt lat="43.71251" lon="6.07702">
        <ele>430.1</ele>
        <time>2026-02-20T13:01:35.000Z</time>
      </trkpt>
      <trkpt lat="43.71257" lon="6.07711">
        <ele>429</ele>
        <time>2026-02-20T13:01:44.000Z</time>
      </trkpt>
      <trkpt lat="43.71259" lon="6.07723">
        <ele>427.8</ele>
        <time>2026-02-20T13:01:54.000Z</time>
      </trkpt>
      <trkpt lat="43.71263" lon="6.07734">
        <ele>426.4</ele>
        <time>2026-02-20T13:02:05.000Z</time>
      </trkpt>
      <trkpt lat="43.71264" lon="6.07747">
        <ele>425.3</ele>
        <time>2026-02-20T13:02:19.000Z</time>
      </trkpt>
      <trkpt lat="43.71269" lon="6.07758">
        <ele>424.2</ele>
        <time>2026-02-20T13:02:30.000Z</time>
      </trkpt>
      <trkpt lat="43.71275" lon="6.07768">
        <ele>422.9</ele>
        <time>2026-02-20T13:02:42.000Z</time>
      </trkpt>
      <trkpt lat="43.71282" lon="6.07777">
        <ele>422.2</ele>
        <time>2026-02-20T13:02:58.000Z</time>
      </trkpt>
      <trkpt lat="43.71288" lon="6.07787">
        <ele>421.1</ele>
        <time>2026-02-20T13:03:11.000Z</time>
      </trkpt>
      <trkpt lat="43.71294" lon="6.07798">
        <ele>419.7</ele>
        <time>2026-02-20T13:03:29.000Z</time>
      </trkpt>
      <trkpt lat="43.71295" lon="6.07811">
        <ele>418.9</ele>
        <time>2026-02-20T13:03:39.000Z</time>
      </trkpt>
      <trkpt lat="43.71295" lon="6.07824">
        <ele>417.8</ele>
        <time>2026-02-20T13:03:53.000Z</time>
      </trkpt>
      <trkpt lat="43.71302" lon="6.07834">
        <ele>416.8</ele>
        <time>2026-02-20T13:04:04.000Z</time>
      </trkpt>
      <trkpt lat="43.71311" lon="6.07838">
        <ele>415.9</ele>
        <time>2026-02-20T13:04:16.000Z</time>
      </trkpt>
      <trkpt lat="43.7132" lon="6.07841">
        <ele>414.8</ele>
        <time>2026-02-20T13:04:29.000Z</time>
      </trkpt>
      <trkpt lat="43.71327" lon="6.0785">
        <ele>413.1</ele>
        <time>2026-02-20T13:05:16.000Z</time>
      </trkpt>
      <trkpt lat="43.71335" lon="6.07858">
        <ele>413</ele>
        <time>2026-02-20T13:05:30.000Z</time>
      </trkpt>
      <trkpt lat="43.71334" lon="6.07863">
        <ele>412.8</ele>
        <time>2026-02-20T13:05:49.000Z</time>
      </trkpt>
      <trkpt lat="43.71331" lon="6.07865">
        <ele>412.7</ele>
        <time>2026-02-20T13:06:00.000Z</time>
      </trkpt>
      <trkpt lat="43.71331" lon="6.07865">
        <ele>412.8</ele>
        <time>2026-02-20T13:06:14.000Z</time>
      </trkpt>
      <trkpt lat="43.71336" lon="6.07864">
        <ele>412.6</ele>
        <time>2026-02-20T13:06:30.000Z</time>
      </trkpt>
      <trkpt lat="43.71345" lon="6.07859">
        <ele>412.7</ele>
        <time>2026-02-20T13:06:38.000Z</time>
      </trkpt>
      <trkpt lat="43.71354" lon="6.07858">
        <ele>412.8</ele>
        <time>2026-02-20T13:06:48.000Z</time>
      </trkpt>
      <trkpt lat="43.71359" lon="6.07857">
        <ele>413.2</ele>
        <time>2026-02-20T13:07:07.000Z</time>
      </trkpt>
      <trkpt lat="43.71359" lon="6.07857">
        <ele>413.6</ele>
        <time>2026-02-20T13:07:28.000Z</time>
      </trkpt>
      <trkpt lat="43.71368" lon="6.07859">
        <ele>414.1</ele>
        <time>2026-02-20T13:07:47.000Z</time>
      </trkpt>
      <trkpt lat="43.71374" lon="6.07869">
        <ele>417.2</ele>
        <time>2026-02-20T13:08:19.000Z</time>
      </trkpt>
      <trkpt lat="43.71384" lon="6.07871">
        <ele>418.1</ele>
        <time>2026-02-20T13:08:32.000Z</time>
      </trkpt>
      <trkpt lat="43.71385" lon="6.07858">
        <ele>417.9</ele>
        <time>2026-02-20T13:08:43.000Z</time>
      </trkpt>
      <trkpt lat="43.7139" lon="6.07847">
        <ele>417.3</ele>
        <time>2026-02-20T13:08:54.000Z</time>
      </trkpt>
      <trkpt lat="43.71393" lon="6.07835">
        <ele>417.2</ele>
        <time>2026-02-20T13:09:03.000Z</time>
      </trkpt>
      <trkpt lat="43.71401" lon="6.07826">
        <ele>417</ele>
        <time>2026-02-20T13:09:25.000Z</time>
      </trkpt>
      <trkpt lat="43.71406" lon="6.07814">
        <ele>416.9</ele>
        <time>2026-02-20T13:09:34.000Z</time>
      </trkpt>
      <trkpt lat="43.71404" lon="6.07801">
        <ele>416.3</ele>
        <time>2026-02-20T13:09:57.000Z</time>
      </trkpt>
      <trkpt lat="43.71405" lon="6.07789">
        <ele>416.9</ele>
        <time>2026-02-20T13:10:19.000Z</time>
      </trkpt>
      <trkpt lat="43.71407" lon="6.07777">
        <ele>418.7</ele>
        <time>2026-02-20T13:10:42.000Z</time>
      </trkpt>
      <trkpt lat="43.71412" lon="6.07765">
        <ele>419.6</ele>
        <time>2026-02-20T13:10:52.000Z</time>
      </trkpt>
      <trkpt lat="43.71419" lon="6.07755">
        <ele>420.1</ele>
        <time>2026-02-20T13:11:04.000Z</time>
      </trkpt>
      <trkpt lat="43.71423" lon="6.07744">
        <ele>420.2</ele>
        <time>2026-02-20T13:11:14.000Z</time>
      </trkpt>
      <trkpt lat="43.71428" lon="6.07732">
        <ele>420.5</ele>
        <time>2026-02-20T13:11:23.000Z</time>
      </trkpt>
      <trkpt lat="43.71434" lon="6.07722">
        <ele>421.2</ele>
        <time>2026-02-20T13:11:32.000Z</time>
      </trkpt>
      <trkpt lat="43.71442" lon="6.07713">
        <ele>422.3</ele>
        <time>2026-02-20T13:11:48.000Z</time>
      </trkpt>
      <trkpt lat="43.71449" lon="6.07705">
        <ele>422.7</ele>
        <time>2026-02-20T13:11:58.000Z</time>
      </trkpt>
      <trkpt lat="43.7144" lon="6.07711">
        <ele>423.1</ele>
        <time>2026-02-20T13:12:59.000Z</time>
      </trkpt>
      <trkpt lat="43.71442" lon="6.07723">
        <ele>422.5</ele>
        <time>2026-02-20T13:13:12.000Z</time>
      </trkpt>
      <trkpt lat="43.71433" lon="6.07722">
        <ele>421.9</ele>
        <time>2026-02-20T13:13:35.000Z</time>
      </trkpt>
      <trkpt lat="43.71427" lon="6.07732">
        <ele>421.6</ele>
        <time>2026-02-20T13:13:53.000Z</time>
      </trkpt>
      <trkpt lat="43.71422" lon="6.07743">
        <ele>420.9</ele>
        <time>2026-02-20T13:14:04.000Z</time>
      </trkpt>
      <trkpt lat="43.71416" lon="6.07754">
        <ele>420</ele>
        <time>2026-02-20T13:14:13.000Z</time>
      </trkpt>
      <trkpt lat="43.71409" lon="6.07764">
        <ele>419.3</ele>
        <time>2026-02-20T13:14:23.000Z</time>
      </trkpt>
      <trkpt lat="43.71403" lon="6.07775">
        <ele>418.7</ele>
        <time>2026-02-20T13:14:32.000Z</time>
      </trkpt>
      <trkpt lat="43.71397" lon="6.07785">
        <ele>417.9</ele>
        <time>2026-02-20T13:14:44.000Z</time>
      </trkpt>
      <trkpt lat="43.714" lon="6.07798">
        <ele>416.8</ele>
        <time>2026-02-20T13:14:57.000Z</time>
      </trkpt>
      <trkpt lat="43.71401" lon="6.07811">
        <ele>415.2</ele>
        <time>2026-02-20T13:15:15.000Z</time>
      </trkpt>
      <trkpt lat="43.71397" lon="6.07823">
        <ele>414.9</ele>
        <time>2026-02-20T13:15:35.000Z</time>
      </trkpt>
      <trkpt lat="43.7139" lon="6.07831">
        <ele>415</ele>
        <time>2026-02-20T13:15:58.000Z</time>
      </trkpt>
      <trkpt lat="43.71385" lon="6.07843">
        <ele>415.3</ele>
        <time>2026-02-20T13:16:06.000Z</time>
      </trkpt>
      <trkpt lat="43.71385" lon="6.07855">
        <ele>415.4</ele>
        <time>2026-02-20T13:16:26.000Z</time>
      </trkpt>
      <trkpt lat="43.71383" lon="6.07868">
        <ele>415.6</ele>
        <time>2026-02-20T13:16:35.000Z</time>
      </trkpt>
      <trkpt lat="43.71373" lon="6.07866">
        <ele>416.2</ele>
        <time>2026-02-20T13:16:53.000Z</time>
      </trkpt>
      <trkpt lat="43.71369" lon="6.07855">
        <ele>415</ele>
        <time>2026-02-20T13:17:44.000Z</time>
      </trkpt>
      <trkpt lat="43.71359" lon="6.07853">
        <ele>413.8</ele>
        <time>2026-02-20T13:17:54.000Z</time>
      </trkpt>
      <trkpt lat="43.7135" lon="6.07852">
        <ele>412.9</ele>
        <time>2026-02-20T13:18:02.000Z</time>
      </trkpt>
      <trkpt lat="43.71341" lon="6.07855">
        <ele>412.1</ele>
        <time>2026-02-20T13:18:12.000Z</time>
      </trkpt>
      <trkpt lat="43.71332" lon="6.07861">
        <ele>411.4</ele>
        <time>2026-02-20T13:18:23.000Z</time>
      </trkpt>
      <trkpt lat="43.71325" lon="6.07869">
        <ele>411.1</ele>
        <time>2026-02-20T13:18:38.000Z</time>
      </trkpt>
      <trkpt lat="43.71319" lon="6.07879">
        <ele>411.6</ele>
        <time>2026-02-20T13:18:49.000Z</time>
      </trkpt>
      <trkpt lat="43.71313" lon="6.07888">
        <ele>412.3</ele>
        <time>2026-02-20T13:18:59.000Z</time>
      </trkpt>
      <trkpt lat="43.71307" lon="6.07898">
        <ele>413.3</ele>
        <time>2026-02-20T13:19:09.000Z</time>
      </trkpt>
      <trkpt lat="43.71301" lon="6.07909">
        <ele>414.3</ele>
        <time>2026-02-20T13:19:21.000Z</time>
      </trkpt>
      <trkpt lat="43.71293" lon="6.07916">
        <ele>414.6</ele>
        <time>2026-02-20T13:19:30.000Z</time>
      </trkpt>
      <trkpt lat="43.71288" lon="6.07927">
        <ele>414.7</ele>
        <time>2026-02-20T13:19:41.000Z</time>
      </trkpt>
      <trkpt lat="43.71286" lon="6.0794">
        <ele>415.1</ele>
        <time>2026-02-20T13:19:50.000Z</time>
      </trkpt>
      <trkpt lat="43.7128" lon="6.07951">
        <ele>415.3</ele>
        <time>2026-02-20T13:19:58.000Z</time>
      </trkpt>
      <trkpt lat="43.71279" lon="6.07964">
        <ele>415.3</ele>
        <time>2026-02-20T13:20:11.000Z</time>
      </trkpt>
      <trkpt lat="43.71281" lon="6.07978">
        <ele>415.5</ele>
        <time>2026-02-20T13:20:21.000Z</time>
      </trkpt>
      <trkpt lat="43.71284" lon="6.0799">
        <ele>415.7</ele>
        <time>2026-02-20T13:20:29.000Z</time>
      </trkpt>
      <trkpt lat="43.7129" lon="6.08">
        <ele>415.8</ele>
        <time>2026-02-20T13:20:38.000Z</time>
      </trkpt>
      <trkpt lat="43.71297" lon="6.08009">
        <ele>415.9</ele>
        <time>2026-02-20T13:20:46.000Z</time>
      </trkpt>
      <trkpt lat="43.71305" lon="6.08018">
        <ele>416.1</ele>
        <time>2026-02-20T13:20:54.000Z</time>
      </trkpt>
      <trkpt lat="43.71313" lon="6.08024">
        <ele>416.3</ele>
        <time>2026-02-20T13:21:02.000Z</time>
      </trkpt>
      <trkpt lat="43.71321" lon="6.08032">
        <ele>416.3</ele>
        <time>2026-02-20T13:21:12.000Z</time>
      </trkpt>
      <trkpt lat="43.71329" lon="6.08038">
        <ele>416.3</ele>
        <time>2026-02-20T13:21:20.000Z</time>
      </trkpt>
      <trkpt lat="43.71338" lon="6.0804">
        <ele>416.3</ele>
        <time>2026-02-20T13:21:28.000Z</time>
      </trkpt>
      <trkpt lat="43.71347" lon="6.08043">
        <ele>416.4</ele>
        <time>2026-02-20T13:21:36.000Z</time>
      </trkpt>
      <trkpt lat="43.71356" lon="6.08044">
        <ele>416.5</ele>
        <time>2026-02-20T13:21:45.000Z</time>
      </trkpt>
      <trkpt lat="43.71365" lon="6.08044">
        <ele>416.7</ele>
        <time>2026-02-20T13:21:53.000Z</time>
      </trkpt>
      <trkpt lat="43.71374" lon="6.08042">
        <ele>417.2</ele>
        <time>2026-02-20T13:22:05.000Z</time>
      </trkpt>
      <trkpt lat="43.71381" lon="6.08051">
        <ele>417.5</ele>
        <time>2026-02-20T13:22:15.000Z</time>
      </trkpt>
      <trkpt lat="43.7139" lon="6.08055">
        <ele>417.6</ele>
        <time>2026-02-20T13:22:26.000Z</time>
      </trkpt>
      <trkpt lat="43.71392" lon="6.08068">
        <ele>417.9</ele>
        <time>2026-02-20T13:22:40.000Z</time>
      </trkpt>
      <trkpt lat="43.71398" lon="6.08077">
        <ele>417.7</ele>
        <time>2026-02-20T13:22:50.000Z</time>
      </trkpt>
      <trkpt lat="43.71407" lon="6.08083">
        <ele>417.4</ele>
        <time>2026-02-20T13:22:59.000Z</time>
      </trkpt>
      <trkpt lat="43.71416" lon="6.08082">
        <ele>416.7</ele>
        <time>2026-02-20T13:23:09.000Z</time>
      </trkpt>
      <trkpt lat="43.71424" lon="6.08076">
        <ele>416.7</ele>
        <time>2026-02-20T13:23:19.000Z</time>
      </trkpt>
      <trkpt lat="43.71433" lon="6.08077">
        <ele>416.9</ele>
        <time>2026-02-20T13:23:33.000Z</time>
      </trkpt>
      <trkpt lat="43.7144" lon="6.08086">
        <ele>417</ele>
        <time>2026-02-20T13:23:46.000Z</time>
      </trkpt>
      <trkpt lat="43.71447" lon="6.08095">
        <ele>417</ele>
        <time>2026-02-20T13:23:58.000Z</time>
      </trkpt>
      <trkpt lat="43.71453" lon="6.08105">
        <ele>417.1</ele>
        <time>2026-02-20T13:24:12.000Z</time>
      </trkpt>
      <trkpt lat="43.71457" lon="6.08116">
        <ele>417.2</ele>
        <time>2026-02-20T13:24:27.000Z</time>
      </trkpt>
      <trkpt lat="43.71458" lon="6.08129">
        <ele>417.1</ele>
        <time>2026-02-20T13:24:43.000Z</time>
      </trkpt>
      <trkpt lat="43.71465" lon="6.08139">
        <ele>416.8</ele>
        <time>2026-02-20T13:24:59.000Z</time>
      </trkpt>
      <trkpt lat="43.71468" lon="6.08152">
        <ele>416</ele>
        <time>2026-02-20T13:25:13.000Z</time>
      </trkpt>
      <trkpt lat="43.71472" lon="6.08162">
        <ele>414.8</ele>
        <time>2026-02-20T13:25:25.000Z</time>
      </trkpt>
      <trkpt lat="43.71476" lon="6.08175">
        <ele>413.9</ele>
        <time>2026-02-20T13:25:37.000Z</time>
      </trkpt>
      <trkpt lat="43.71481" lon="6.08186">
        <ele>413.5</ele>
        <time>2026-02-20T13:25:48.000Z</time>
      </trkpt>
      <trkpt lat="43.71483" lon="6.08198">
        <ele>412.3</ele>
        <time>2026-02-20T13:26:04.000Z</time>
      </trkpt>
      <trkpt lat="43.71489" lon="6.08209">
        <ele>411.3</ele>
        <time>2026-02-20T13:26:15.000Z</time>
      </trkpt>
      <trkpt lat="43.71494" lon="6.08219">
        <ele>411.2</ele>
        <time>2026-02-20T13:26:31.000Z</time>
      </trkpt>
      <trkpt lat="43.715" lon="6.08229">
        <ele>411.3</ele>
        <time>2026-02-20T13:26:40.000Z</time>
      </trkpt>
      <trkpt lat="43.71509" lon="6.08235">
        <ele>411.5</ele>
        <time>2026-02-20T13:26:51.000Z</time>
      </trkpt>
      <trkpt lat="43.71516" lon="6.08243">
        <ele>413.1</ele>
        <time>2026-02-20T13:27:01.000Z</time>
      </trkpt>
      <trkpt lat="43.71525" lon="6.08241">
        <ele>414</ele>
        <time>2026-02-20T13:27:14.000Z</time>
      </trkpt>
      <trkpt lat="43.71534" lon="6.08245">
        <ele>414.4</ele>
        <time>2026-02-20T13:27:26.000Z</time>
      </trkpt>
      <trkpt lat="43.71541" lon="6.08254">
        <ele>414.1</ele>
        <time>2026-02-20T13:27:39.000Z</time>
      </trkpt>
      <trkpt lat="43.7155" lon="6.08258">
        <ele>413.7</ele>
        <time>2026-02-20T13:27:53.000Z</time>
      </trkpt>
      <trkpt lat="43.71553" lon="6.0827">
        <ele>413.5</ele>
        <time>2026-02-20T13:28:07.000Z</time>
      </trkpt>
      <trkpt lat="43.7156" lon="6.08278">
        <ele>414</ele>
        <time>2026-02-20T13:28:24.000Z</time>
      </trkpt>
      <trkpt lat="43.71564" lon="6.08289">
        <ele>414.9</ele>
        <time>2026-02-20T13:28:37.000Z</time>
      </trkpt>
      <trkpt lat="43.71569" lon="6.08301">
        <ele>416.3</ele>
        <time>2026-02-20T13:28:49.000Z</time>
      </trkpt>
      <trkpt lat="43.71573" lon="6.08313">
        <ele>417.1</ele>
        <time>2026-02-20T13:29:03.000Z</time>
      </trkpt>
      <trkpt lat="43.71576" lon="6.08322">
        <ele>415.8</ele>
        <time>2026-02-20T13:29:29.000Z</time>
      </trkpt>
      <trkpt lat="43.71574" lon="6.08322">
        <ele>417.1</ele>
        <time>2026-02-20T13:30:56.000Z</time>
      </trkpt>
      <trkpt lat="43.71573" lon="6.08324">
        <ele>416.7</ele>
        <time>2026-02-20T13:31:26.000Z</time>
      </trkpt>
      <trkpt lat="43.71575" lon="6.08328">
        <ele>416.8</ele>
        <time>2026-02-20T13:31:36.000Z</time>
      </trkpt>
      <trkpt lat="43.71584" lon="6.08335">
        <ele>417.5</ele>
        <time>2026-02-20T13:31:49.000Z</time>
      </trkpt>
      <trkpt lat="43.71586" lon="6.08339">
        <ele>418.4</ele>
        <time>2026-02-20T13:32:07.000Z</time>
      </trkpt>
      <trkpt lat="43.71589" lon="6.08342">
        <ele>418.6</ele>
        <time>2026-02-20T13:32:17.000Z</time>
      </trkpt>
      <trkpt lat="43.71595" lon="6.08353">
        <ele>418.8</ele>
        <time>2026-02-20T13:32:36.000Z</time>
      </trkpt>
      <trkpt lat="43.716" lon="6.08363">
        <ele>419.3</ele>
        <time>2026-02-20T13:32:52.000Z</time>
      </trkpt>
      <trkpt lat="43.71603" lon="6.08376">
        <ele>420.5</ele>
        <time>2026-02-20T13:33:06.000Z</time>
      </trkpt>
      <trkpt lat="43.71605" lon="6.08389">
        <ele>420.6</ele>
        <time>2026-02-20T13:33:19.000Z</time>
      </trkpt>
      <trkpt lat="43.71612" lon="6.08398">
        <ele>420.5</ele>
        <time>2026-02-20T13:33:31.000Z</time>
      </trkpt>
      <trkpt lat="43.71618" lon="6.08406">
        <ele>420.6</ele>
        <time>2026-02-20T13:33:46.000Z</time>
      </trkpt>
      <trkpt lat="43.71626" lon="6.08414">
        <ele>420.4</ele>
        <time>2026-02-20T13:34:02.000Z</time>
      </trkpt>
      <trkpt lat="43.71634" lon="6.08418">
        <ele>420.5</ele>
        <time>2026-02-20T13:34:16.000Z</time>
      </trkpt>
      <trkpt lat="43.71643" lon="6.08423">
        <ele>420.7</ele>
        <time>2026-02-20T13:34:27.000Z</time>
      </trkpt>
      <trkpt lat="43.71652" lon="6.08428">
        <ele>421.2</ele>
        <time>2026-02-20T13:34:39.000Z</time>
      </trkpt>
      <trkpt lat="43.7166" lon="6.08435">
        <ele>421.5</ele>
        <time>2026-02-20T13:34:52.000Z</time>
      </trkpt>
      <trkpt lat="43.71668" lon="6.08442">
        <ele>421.6</ele>
        <time>2026-02-20T13:35:04.000Z</time>
      </trkpt>
      <trkpt lat="43.71676" lon="6.08449">
        <ele>421.7</ele>
        <time>2026-02-20T13:35:17.000Z</time>
      </trkpt>
      <trkpt lat="43.71684" lon="6.08455">
        <ele>421.7</ele>
        <time>2026-02-20T13:35:29.000Z</time>
      </trkpt>
      <trkpt lat="43.7169" lon="6.08465">
        <ele>421.9</ele>
        <time>2026-02-20T13:35:42.000Z</time>
      </trkpt>
      <trkpt lat="43.71692" lon="6.08477">
        <ele>421.8</ele>
        <time>2026-02-20T13:35:55.000Z</time>
      </trkpt>
      <trkpt lat="43.71694" lon="6.0849">
        <ele>421.1</ele>
        <time>2026-02-20T13:36:16.000Z</time>
      </trkpt>
      <trkpt lat="43.71696" lon="6.08502">
        <ele>420.7</ele>
        <time>2026-02-20T13:36:29.000Z</time>
      </trkpt>
      <trkpt lat="43.71703" lon="6.08511">
        <ele>420.4</ele>
        <time>2026-02-20T13:36:41.000Z</time>
      </trkpt>
      <trkpt lat="43.71706" lon="6.08523">
        <ele>420.5</ele>
        <time>2026-02-20T13:36:52.000Z</time>
      </trkpt>
      <trkpt lat="43.71705" lon="6.08536">
        <ele>420.3</ele>
        <time>2026-02-20T13:37:09.000Z</time>
      </trkpt>
      <trkpt lat="43.71705" lon="6.08537">
        <ele>419.7</ele>
        <time>2026-02-20T13:37:26.000Z</time>
      </trkpt>
      <trkpt lat="43.71709" lon="6.08539">
        <ele>419.4</ele>
        <time>2026-02-20T13:37:40.000Z</time>
      </trkpt>
      <trkpt lat="43.71716" lon="6.08548">
        <ele>419.5</ele>
        <time>2026-02-20T13:37:51.000Z</time>
      </trkpt>
      <trkpt lat="43.71724" lon="6.08555">
        <ele>419.6</ele>
        <time>2026-02-20T13:38:02.000Z</time>
      </trkpt>
      <trkpt lat="43.71733" lon="6.08557">
        <ele>419.7</ele>
        <time>2026-02-20T13:38:12.000Z</time>
      </trkpt>
      <trkpt lat="43.71741" lon="6.08563">
        <ele>420.2</ele>
        <time>2026-02-20T13:38:22.000Z</time>
      </trkpt>
      <trkpt lat="43.71748" lon="6.08571">
        <ele>420.5</ele>
        <time>2026-02-20T13:38:32.000Z</time>
      </trkpt>
      <trkpt lat="43.71752" lon="6.08583">
        <ele>420.7</ele>
        <time>2026-02-20T13:38:45.000Z</time>
      </trkpt>
      <trkpt lat="43.7176" lon="6.08591">
        <ele>420.9</ele>
        <time>2026-02-20T13:38:56.000Z</time>
      </trkpt>
      <trkpt lat="43.71767" lon="6.08599">
        <ele>421</ele>
        <time>2026-02-20T13:39:05.000Z</time>
      </trkpt>
      <trkpt lat="43.71774" lon="6.08607">
        <ele>421.1</ele>
        <time>2026-02-20T13:39:13.000Z</time>
      </trkpt>
      <trkpt lat="43.71782" lon="6.08614">
        <ele>421.4</ele>
        <time>2026-02-20T13:39:24.000Z</time>
      </trkpt>
      <trkpt lat="43.71783" lon="6.08627">
        <ele>422.1</ele>
        <time>2026-02-20T13:39:38.000Z</time>
      </trkpt>
      <trkpt lat="43.71785" lon="6.0864">
        <ele>422.1</ele>
        <time>2026-02-20T13:39:49.000Z</time>
      </trkpt>
      <trkpt lat="43.7179" lon="6.08651">
        <ele>421.9</ele>
        <time>2026-02-20T13:40:01.000Z</time>
      </trkpt>
      <trkpt lat="43.71787" lon="6.08663">
        <ele>421.7</ele>
        <time>2026-02-20T13:40:21.000Z</time>
      </trkpt>
      <trkpt lat="43.7178" lon="6.08672">
        <ele>421.5</ele>
        <time>2026-02-20T13:40:32.000Z</time>
      </trkpt>
      <trkpt lat="43.71772" lon="6.08679">
        <ele>421.6</ele>
        <time>2026-02-20T13:40:48.000Z</time>
      </trkpt>
      <trkpt lat="43.71766" lon="6.08689">
        <ele>421.5</ele>
        <time>2026-02-20T13:41:02.000Z</time>
      </trkpt>
      <trkpt lat="43.71759" lon="6.08698">
        <ele>421.5</ele>
        <time>2026-02-20T13:41:15.000Z</time>
      </trkpt>
      <trkpt lat="43.71753" lon="6.08708">
        <ele>421.5</ele>
        <time>2026-02-20T13:41:24.000Z</time>
      </trkpt>
      <trkpt lat="43.71745" lon="6.08717">
        <ele>421.6</ele>
        <time>2026-02-20T13:41:32.000Z</time>
      </trkpt>
      <trkpt lat="43.71739" lon="6.08726">
        <ele>421.6</ele>
        <time>2026-02-20T13:41:41.000Z</time>
      </trkpt>
      <trkpt lat="43.7173" lon="6.08732">
        <ele>422.2</ele>
        <time>2026-02-20T13:42:08.000Z</time>
      </trkpt>
      <trkpt lat="43.71723" lon="6.08741">
        <ele>422.5</ele>
        <time>2026-02-20T13:42:27.000Z</time>
      </trkpt>
      <trkpt lat="43.71717" lon="6.08751">
        <ele>422.5</ele>
        <time>2026-02-20T13:42:34.000Z</time>
      </trkpt>
      <trkpt lat="43.71711" lon="6.0876">
        <ele>422.4</ele>
        <time>2026-02-20T13:42:41.000Z</time>
      </trkpt>
      <trkpt lat="43.71711" lon="6.08773">
        <ele>422.3</ele>
        <time>2026-02-20T13:42:57.000Z</time>
      </trkpt>
      <trkpt lat="43.71707" lon="6.08785">
        <ele>424.5</ele>
        <time>2026-02-20T13:43:28.000Z</time>
      </trkpt>
      <trkpt lat="43.71712" lon="6.08796">
        <ele>425.3</ele>
        <time>2026-02-20T13:43:38.000Z</time>
      </trkpt>
    </trkseg>
  </trk>
</gpx>